Home > Products > Valid Products > MTR

000
SAUS46 KLOX 212136
MTRMWS
METAR KMWS 212130Z 23500G00KT MM/12 RMK SNOW DEPTH 4.00





000
SAUS46 KLOX 212115
MTRMWS
METAR KMWS 212100Z 25002G04KT 21/10 RMK SNOW DEPTH 4.00





000
SAUS46 KLOX 212059
MTR9L2
METAR K9L2 212055Z AUTO 26009G18KT 10SM CLR 25/01 A2988 RMK AO2
SLP104 T02500011 58021 TSNO $





000
SAUS46 KLOX 212055
MTRLAX
METAR KLAX 212053Z 25012KT 10SM SCT180 SCT250 22/16 A2987 RMK AO2
SLP111 T02220161 58019 $





000
SAUS46 KLOX 212054
MTRMWS
METAR KMWS 212045Z 25503G04KT 21/10 RMK SNOW DEPTH 4.00





000
SAUS46 KLOX 212052
MTRSMX
METAR KSMX 212051Z 02010KT 10SM CLR 27/06 A2993 RMK AO2 SLP133
T02720056 56023





000
SAUS46 KLOX 212049
MTRSDB
METAR KSDB 212048Z AUTO 36014G28KT 10SM CLR 16/06 A3003 RMK AO2 PK
WND 36030/2023 SLP132 T01560056 58014





000
SAUS46 KLOX 212048
MTRCQT
METAR KCQT 212047Z AUTO 26006KT 10SM CLR 24/14 A2985 RMK AO2 SLP105
T02440139 58020





000
SAUS46 KLOX 212036
MTRMWS
METAR KMWS 212030Z 23500G00KT MM/10 RMK SNOW DEPTH 4.00





000
SAUS46 KLOX 212015
MTRMWS
METAR KMWS 212000Z 24504G06KT 21/10 RMK SNOW DEPTH 4.00





000
SAUS46 KLOX 211959
MTR9L2
METAR K9L2 211955Z AUTO 23014KT 10SM CLR 24/04 A2990 RMK AO2 WSHFT
1941 SLP111 T02390039 TSNO $





000
SAUS46 KLOX 211959
MTR9L2
METAR K9L2 211955Z AUTO 23014KT 10SM CLR 24/04 A2990 RMK AO2 WSHFT
1941 SLP111 T02390039 TSNO $





000
SAUS46 KLOX 211955
MTRLAX
METAR KLAX 211953Z 24007KT 10SM SCT180 BKN200 22/14 A2989 RMK AO2
SLP119 T02220144 $





000
SAUS46 KLOX 211954
MTRMWS
METAR KMWS 211945Z 24503G05KT 22/11 RMK SNOW DEPTH 4.00





000
SAUS46 KLOX 211953
MTRSMX
METAR KSMX 211951Z 03020G24KT 10SM CLR 27/06 A2994 RMK AO2 SLP139
T02670061





000
SAUS46 KLOX 211949
MTRSDB
METAR KSDB 211948Z AUTO 35019KT 10SM CLR 16/06 A3004 RMK AO2 PK WND
33032/1909 SLP136 T01560056





000
SAUS46 KLOX 211949
MTRCQT
METAR KCQT 211947Z AUTO VRB04KT 10SM CLR 25/14 A2987 RMK AO2 SLP113
T02500139 $





000
SAUS46 KLOX 211936
MTRMWS
METAR KMWS 211930Z 23500G00KT MM/08 RMK SNOW DEPTH 4.00





000
SAUS46 KLOX 211915
MTRMWS
METAR KMWS 211900Z 24503G05KT 21/07 RMK SNOW DEPTH 4.00





000
SAUS46 KLOX 211857
MTRMWS
METAR KMWS 211845Z 25503G05KT 21/06 RMK SNOW DEPTH 3.00





000
SAUS46 KLOX 211857
MTR9L2
METAR K9L2 211855Z AUTO 34006KT 10SM CLR 23/04 A2993 RMK AO2 SLP123
T02330039 TSNO $





000
SAUS46 KLOX 211854
MTRLAX
METAR KLAX 211853Z 27009KT 8SM FEW180 SCT200 22/16 A2991 RMK AO2
SLP128 T02220156 $





000
SAUS46 KLOX 211853
MTRSMX
METAR KSMX 211851Z 03015G21KT 10SM BKN250 26/06 A2997 RMK AO2 PK WND
02026/1820 SLP149 T02560061





000
SAUS46 KLOX 211849
MTRSDB
METAR KSDB 211848Z AUTO 35021G29KT 10SM CLR 13/06 A3006 RMK AO2 PK
WND 34032/1836 SLP146 T01280056





000
SAUS46 KLOX 211848
MTRCQT
METAR KCQT 211847Z AUTO 00000KT 6SM HZ CLR 25/13 A2990 RMK AO2
SLP122 T02500133





000
SAUS46 KLOX 211836
MTRMWS
METAR KMWS 211830Z 23500G00KT MM/06 RMK SNOW DEPTH 4.00





000
SAUS46 KLOX 211815
MTRMWS
METAR KMWS 211800Z 25503G04KT 21/04 RMK SNOW DEPTH 3.00





000
SAUS46 KLOX 211759
MTR9L2
METAR K9L2 211755Z AUTO 22006KT 10SM CLR 21/06 A2994 RMK AO2 SLP128
T02060056 10206 20089 58003 $





000
SAUS46 KLOX 211754
MTRMWS
METAR KMWS 211745Z 01502G04KT 20/00 RMK SNOW DEPTH 4.00





000
SAUS46 KLOX 211754
MTRLAX
METAR KLAX 211753Z VRB03KT 7SM FEW160 SCT200 22/16 A2992 RMK AO2
SLP130 T02220156 10222 20172 $





000
SAUS46 KLOX 211753
MTRSMX
METAR KSMX 211751Z 03012G21KT 10SM BKN250 24/06 A2999 RMK AO2 PK WND
02029/1659 RAB1654E51 SLP156 P0000 60000 T02390061 10239 20144 51010





000
SAUS46 KLOX 211749
MTRSDB
METAR KSDB 211748Z AUTO 35025G32KT 10SM CLR 11/06 A3007 RMK AO2 PK
WND 34032/1747 SLP149 T01060056 10111 20083 50006





000
SAUS46 KLOX 211748
MTRCQT
METAR KCQT 211747Z AUTO VRB04KT 5SM HZ CLR 23/14 A2991 RMK AO2
SLP125 T02280139 10228 20183 58002





000
SAUS46 KLOX 211715
MTRMWS
METAR KMWS 211700Z 25002G04KT 20/M03 RMK SNOW DEPTH 3.00





000
SAUS46 KLOX 211659
MTR9L2
METAR K9L2 211655Z AUTO 24013KT 10SM CLR 19/06 A2995 RMK AO2 SLP133
T01940061 $





000
SAUS46 KLOX 211659
MTR9L2
METAR K9L2 211655Z AUTO 24013KT 10SM CLR 19/06 A2995 RMK AO2 SLP133
T01940061 $





000
SAUS46 KLOX 211654
MTRLAX
METAR KLAX 211653Z 00000KT 7SM FEW020 21/15 A2992 RMK AO2 SLP132
T02060150 $





000
SAUS46 KLOX 211654
MTRLAX
METAR KLAX 211653Z 00000KT 7SM FEW020 21/15 A2992 RMK AO2 SLP132
T02060150 $





000
SAUS46 KLOX 211654
MTRMWS
METAR KMWS 211645Z 24002G02KT 20/M04 RMK SNOW DEPTH 3.00





000
SAUS46 KLOX 211654
MTRMWS
METAR KMWS 211645Z 24002G02KT 20/M04 RMK SNOW DEPTH 3.00





000
SAUS46 KLOX 211652
MTRSMX
METAR KSMX 211651Z 02012KT 9SM CLR 23/07 A2999 RMK AO2 SLP154
T02280067





000
SAUS46 KLOX 211652
MTRSMX
METAR KSMX 211651Z 02012KT 9SM CLR 23/07 A2999 RMK AO2 SLP154
T02280067





000
SAUS46 KLOX 211650
MTRSDB
METAR KSDB 211648Z AUTO 36018G30KT 10SM FEW002 10/07 A3008 RMK AO2
PK WND 34031/1624 SLP153 T01000072





000
SAUS46 KLOX 211648
MTRCQT
METAR KCQT 211647Z AUTO 00000KT 4SM HZ CLR 21/15 A2991 RMK AO2
SLP127 T02110150





000
SAUS46 KLOX 211638
MTRSDB
SPECI KSDB 211637Z AUTO 34023G30KT 10SM SCT001 10/07 A3007 RMK AO2
PK WND 34031/1624 T01000072





000
SAUS46 KLOX 211636
MTRMWS
METAR KMWS 211630Z 23500G00KT MM/M04 RMK SNOW DEPTH 3.00





000
SAUS46 KLOX 211621
MTRSDB
SPECI KSDB 211619Z AUTO 35023G29KT 6SM BR BKN001 09/07 A3007 RMK AO2
PK WND 34030/1614 T00890067





000
SAUS46 KLOX 211617
MTRLAX
SPECI KLAX 211614Z COR 14003KT 6SM HZ FEW020 19/16 A2993 RMK AO2 $





000
SAUS46 KLOX 211617
MTRLAX
SPECI KLAX 211614Z COR 14003KT 6SM HZ FEW020 19/16 A2993 RMK AO2 $





000
SAUS46 KLOX 211616
MTRSDB
SPECI KSDB 211615Z AUTO 34026KT 2SM BR OVC001 09/07 A3006 RMK AO2 PK
WND 34030/1614 T00890067





000
SAUS46 KLOX 211616
MTRSDB
SPECI KSDB 211615Z AUTO 34026KT 2SM BR OVC001 09/07 A3006 RMK AO2 PK
WND 34030/1614 T00890067





000
SAUS46 KLOX 211616
MTRLAX
SPECI KLAX 211614Z 14003KT 6SM R25R/6000FT HZ FEW020 19/16 A2993 RMK
AO2 $





000
SAUS46 KLOX 211616
MTRLAX
SPECI KLAX 211614Z 14003KT 6SM R25R/6000FT HZ FEW020 19/16 A2993 RMK
AO2 $





000
SAUS46 KLOX 211615
MTRMWS
METAR KMWS 211600Z 23002G04KT 17/M07 RMK SNOW DEPTH 3.00





000
SAUS46 KLOX 211615
MTRMWS
METAR KMWS 211600Z 23002G04KT 17/M07 RMK SNOW DEPTH 3.00





000
SAUS46 KLOX 211603
MTRSDB
SPECI KSDB 211602Z AUTO 34021KT 1SM BR VV001 09/07 A3006 RMK AO2 PK
WND 34028/1552 VIS 1/2V4 T00890067





000
SAUS46 KLOX 211603
MTRSDB
SPECI KSDB 211602Z AUTO 34021KT 1SM BR VV001 09/07 A3006 RMK AO2 PK
WND 34028/1552 VIS 1/2V4 T00890067





000
SAUS46 KLOX 211600
MTRLAX
METAR KLAX 211553Z 12003KT 5SM HZ FEW018 19/16 A2993 RMK AO2 SLP133
T01890161





000
SAUS46 KLOX 211600
MTRLAX
METAR KLAX 211553Z 12003KT 5SM HZ FEW018 19/16 A2993 RMK AO2 SLP133
T01890161





000
SAUS46 KLOX 211559
MTR9L2
METAR K9L2 211555Z AUTO 27005KT 10SM CLR 16/07 A2996 RMK AO2 SLP134
T01610072 TSNO $





000
SAUS46 KLOX 211559
MTR9L2
METAR K9L2 211555Z AUTO 27005KT 10SM CLR 16/07 A2996 RMK AO2 SLP134
T01610072 TSNO $





000
SAUS46 KLOX 211557
MTRMWS
METAR KMWS 211545Z 24002G03KT 17/M05 RMK SNOW DEPTH 3.00





000
SAUS46 KLOX 211557
MTRMWS
METAR KMWS 211545Z 24002G03KT 17/M05 RMK SNOW DEPTH 3.00





000
SAUS46 KLOX 211554
MTRLAX
METAR KLAX 211553Z 12003KT 5SM HZ FEW018 19/16 A2993 RMK AO2 SLP133
T01890161





000
SAUS46 KLOX 211554
MTRLAX
METAR KLAX 211553Z 12003KT 5SM HZ FEW018 19/16 A2993 RMK AO2 SLP133
T01890161





000
SAUS46 KLOX 211552
MTRSMX
METAR KSMX 211551Z 36011KT 10SM CLR 21/08 A2999 RMK AO2 SLP156
T02110078





000
SAUS46 KLOX 211552
MTRSMX
METAR KSMX 211551Z 36011KT 10SM CLR 21/08 A2999 RMK AO2 SLP156
T02110078





000
SAUS46 KLOX 211549
MTRSDB
METAR KSDB 211548Z AUTO 34025G32KT M1/4SM FG VV001 08/07 A3006 RMK
AO2 PK WND 34035/1450 SLP149 T00830067





000
SAUS46 KLOX 211549
MTRCQT
METAR KCQT 211547Z AUTO 00000KT 3SM HZ CLR 19/15 A2992 RMK AO2
SLP131 T01940150





000
SAUS46 KLOX 211549
MTRCQT
METAR KCQT 211547Z AUTO 00000KT 3SM HZ CLR 19/15 A2992 RMK AO2
SLP131 T01940150





000
SAUS46 KLOX 211549
MTRSDB
METAR KSDB 211548Z AUTO 34025G32KT M1/4SM FG VV001 08/07 A3006 RMK
AO2 PK WND 34035/1450 SLP149 T00830067





000
SAUS46 KLOX 211536
MTRMWS
METAR KMWS 211530Z 23500G00KT MM/M04 RMK SNOW DEPTH 3.00





000
SAUS46 KLOX 211536
MTRMWS
METAR KMWS 211530Z 23500G00KT MM/M04 RMK SNOW DEPTH 3.00





000
SAUS46 KLOX 211523
MTRCQT
SPECI KCQT 211522Z AUTO 00000KT 4SM HZ SCT012 19/15 A2992 RMK AO2
T01890150





000
SAUS46 KLOX 211523
MTRCQT
SPECI KCQT 211522Z AUTO 00000KT 4SM HZ SCT012 19/15 A2992 RMK AO2
T01890150





000
SAUS46 KLOX 211515
MTRMWS
METAR KMWS 211500Z 21501G03KT 15/M05 RMK SNOW DEPTH 3.00





000
SAUS46 KLOX 211457
MTR9L2
METAR K9L2 211455Z AUTO 00000KT 10SM CLR 12/07 A2995 RMK AO2 SLP137
T01170067 53008 TSNO $





000
SAUS46 KLOX 211454
MTRLAX
METAR KLAX 211453Z VRB03KT 6SM BR FEW014 SCT018 18/16 A2992 RMK AO2
SLP130 T01830161 53008





000
SAUS46 KLOX 211454
MTRMWS
METAR KMWS 211445Z 22005G07KT 13/M05 RMK SNOW DEPTH 3.00





000
SAUS46 KLOX 211453
MTRSMX
METAR KSMX 211451Z 34007KT 10SM CLR 18/08 A2996 RMK AO2 WSHFT 1425
SLP147 T01830083 53001





000
SAUS46 KLOX 211449
MTRSDB
METAR KSDB 211448Z AUTO 34026G34KT M1/4SM FG VV001 08/07 A3005 RMK
AO2 PK WND 34034/1443 SLP143 T00830067 51006





000
SAUS46 KLOX 211448
MTRCQT
METAR KCQT 211447Z AUTO 00000KT 4SM HZ BKN013 18/15 A2991 RMK AO2
SLP128 T01830150 53008





000
SAUS46 KLOX 211436
MTRMWS
METAR KMWS 211430Z 23500G00KT MM/M04 RMK SNOW DEPTH 3.00





000
SAUS46 KLOX 211421
MTRCQT
SPECI KCQT 211420Z AUTO 10003KT 4SM HZ SCT013 18/15 A2990 RMK AO2
T01830150





000
SAUS46 KLOX 211415
MTRMWS
METAR KMWS 211400Z 27503G05KT 12/M04 RMK SNOW DEPTH 3.00





000
SAUS46 KLOX 211359
MTR9L2
METAR K9L2 211355Z AUTO 00000KT 10SM CLR 11/07 A2994 RMK AO2 SLP131
T01060067 TSNO $





000
SAUS46 KLOX 211354
MTRMWS
METAR KMWS 211345Z 26008G09KT 12/M03 RMK SNOW DEPTH 3.00





000
SAUS46 KLOX 211354
MTRLAX
METAR KLAX 211353Z 12004KT 5SM BCFG BR FEW011 SCT016 18/16 A2990 RMK
AO2 SLP124 T01780161





000
SAUS46 KLOX 211353
MTRSMX
METAR KSMX 211351Z 32009G17KT 290V070 10SM CLR 14/09 A2996 RMK AO2
SLP145 T01440094





000
SAUS46 KLOX 211349
MTRSDB
METAR KSDB 211348Z AUTO 35024G33KT 1/4SM FG VV001 08/07 A3004 RMK
AO2 PK WND 34039/1328 SLP138 T00830067





000
SAUS46 KLOX 211348
MTRCQT
METAR KCQT 211347Z AUTO 00000KT 7SM OVC014 19/15 A2990 RMK AO2
SLP122 T01890150





000
SAUS46 KLOX 211336
MTRMWS
METAR KMWS 211330Z 23500G00KT MM/M03 RMK SNOW DEPTH 2.00





000
SAUS46 KLOX 211315
MTRMWS
METAR KMWS 211300Z 22508G09KT 12/M05 RMK SNOW DEPTH 3.00





000
SAUS46 KLOX 211315
MTRSDB
SPECI KSDB 211313Z AUTO 35026G35KT 1/4SM FG VV001 09/07 A3004 RMK
AO2 PK WND 34035/1257 T00890067





000
SAUS46 KLOX 211306
MTRSDB
SPECI KSDB 211305Z AUTO 34027G35KT 3/4SM HZ VV001 09/06 A3004 RMK
AO2 PK WND 34035/1257 T00890061





000
SAUS46 KLOX 211303
MTRSDB
SPECI KSDB 211302Z AUTO 34023G35KT 1 1/2SM BR OVC001 09/07 A3004 RMK
AO2 PK WND 34035/1257 VIS 3/4V5 T00890067





000
SAUS46 KLOX 211300
MTRSDB
SPECI KSDB 211259Z AUTO 34023G35KT 3/4SM HZ VV001 09/06 A3004 RMK
AO2 PK WND 34035/1257 VIS 1/4V5 T00890061





000
SAUS46 KLOX 211259
MTR9L2
METAR K9L2 211255Z AUTO 21007KT 10SM CLR 12/07 A2993 RMK AO2 SLP127
T01170072 TSNO $





000
SAUS46 KLOX 211254
MTRMWS
METAR KMWS 211245Z 24508G08KT 12/M04 RMK SNOW DEPTH 3.00





000
SAUS46 KLOX 211254
MTRLAX
METAR KLAX 211253Z 00000KT 9SM FEW014 18/16 A2989 RMK AO2 SLP121
T01780161





000
SAUS46 KLOX 211253
MTRSMX
METAR KSMX 211251Z AUTO 30009KT 10SM CLR 15/10 A2995 RMK AO2 SLP144
T01500100





000
SAUS46 KLOX 211249
MTRSDB
METAR KSDB 211248Z AUTO 34021KT 1/4SM FG VV001 09/07 A3004 RMK AO2
PK WND 35036/1226 SLP137 T00890067





000
SAUS46 KLOX 211248
MTRCQT
METAR KCQT 211247Z AUTO 00000KT 7SM BKN014 19/16 A2989 RMK AO2
SLP120 T01890156





000
SAUS46 KLOX 211239
MTRSDB
SPECI KSDB 211237Z AUTO 35024G34KT 3/4SM BR VV001 09/07 A3004 RMK
AO2 PK WND 35036/1226 VIS 1/4V5 T00890067





000
SAUS46 KLOX 211236
MTRMWS
METAR KMWS 211230Z 23500G00KT MM/M04 RMK SNOW DEPTH 3.00





000
SAUS46 KLOX 211233
MTRSDB
SPECI KSDB 211232Z AUTO 35027G36KT 1 3/4SM HZ OVC001 09/06 A3003 RMK
AO2 PK WND 35036/1226 VIS 3/4V5 T00890061





000
SAUS46 KLOX 211223
MTRSDB
SPECI KSDB 211222Z AUTO 34025G35KT 5SM BR BKN001 09/07 A3003 RMK AO2
PK WND 34035/1216 T00890067





000
SAUS46 KLOX 211219
MTRSDB
SPECI KSDB 211218Z AUTO 34024G35KT 2SM BR BKN001 09/07 A3003 RMK AO2
PK WND 34035/1216 VIS 1/2V5 T00890067





000
SAUS46 KLOX 211217
MTRSDB
SPECI KSDB 211216Z AUTO 34028G35KT 1SM BR VV001 09/07 A3003 RMK AO2
PK WND 34035/1216 VIS 1/4V5 T00890067





000
SAUS46 KLOX 211215
MTRMWS
METAR KMWS 211200Z 25008G09KT 13/M04 RMK SNOW DEPTH 3.00





000
SAUS46 KLOX 211207
MTRSDB
SPECI KSDB 211206Z AUTO 34023G31KT 1/4SM FG VV001 09/07 A3004 RMK
AO2 PK WND 34035/1150 T00890067





000
SAUS46 KLOX 211207
MTRSDB
SPECI KSDB 211206Z AUTO 34023G31KT 1/4SM FG VV001 09/07 A3004 RMK
AO2 PK WND 34035/1150 T00890067





000
SAUS46 KLOX 211201
MTRSDB
SPECI KSDB 211200Z AUTO 35024G33KT 1/2SM FG VV001 09/07 A3004 RMK
AO2 PK WND 34035/1150 T00890067





000
SAUS46 KLOX 211201
MTRSDB
SPECI KSDB 211200Z AUTO 35024G33KT 1/2SM FG VV001 09/07 A3004 RMK
AO2 PK WND 34035/1150 T00890067





000
SAUS46 KLOX 211159
MTR9L2
METAR K9L2 211155Z AUTO 18006KT 10SM CLR 13/07 A2993 RMK AO2 SLP121
T01280072 10178 20111 56004 $





000
SAUS46 KLOX 211159
MTR9L2
METAR K9L2 211155Z AUTO 18006KT 10SM CLR 13/07 A2993 RMK AO2 SLP121
T01280072 10178 20111 56004 $





000
SAUS46 KLOX 211154
MTRMWS
METAR KMWS 211145Z 29504G05KT 13/M05 RMK SNOW DEPTH 3.00





000
SAUS46 KLOX 211154
MTRLAX
METAR KLAX 211153Z 00000KT 10SM SCT014 18/17 A2989 RMK AO2 SLP121
SCT V BKN T01830167 10194 20178 55003





000
SAUS46 KLOX 211154
MTRMWS
METAR KMWS 211145Z 29504G05KT 13/M05 RMK SNOW DEPTH 3.00





000
SAUS46 KLOX 211154
MTRLAX
METAR KLAX 211153Z 00000KT 10SM SCT014 18/17 A2989 RMK AO2 SLP121
SCT V BKN T01830167 10194 20178 55003





000
SAUS46 KLOX 211153
MTRSDB
SPECI KSDB 211152Z AUTO 34025G35KT 1/4SM FG VV001 09/07 A3003 RMK
AO2 PK WND 34035/1150 T00890067





000
SAUS46 KLOX 211153
MTRSMX
METAR KSMX 211151Z AUTO 31007KT 10SM CLR 16/11 A2996 RMK AO2 SLP145
T01560106 10183 20139 56009





000
SAUS46 KLOX 211153
MTRSMX
METAR KSMX 211151Z AUTO 31007KT 10SM CLR 16/11 A2996 RMK AO2 SLP145
T01560106 10183 20139 56009





000
SAUS46 KLOX 211153
MTRSDB
SPECI KSDB 211152Z AUTO 34025G35KT 1/4SM FG VV001 09/07 A3003 RMK
AO2 PK WND 34035/1150 T00890067





000
SAUS46 KLOX 211150
MTRLAX
SPECI KLAX 211148Z 00000KT 10SM SCT014 18/17 A2990 RMK AO2 SCT V BKN





000
SAUS46 KLOX 211150
MTRLAX
SPECI KLAX 211148Z 00000KT 10SM SCT014 18/17 A2990 RMK AO2 SCT V BKN





000
SAUS46 KLOX 211149
MTRSDB
METAR KSDB 211148Z AUTO 34027G33KT 1/2SM FG VV001 09/07 A3003 RMK
AO2 PK WND 34038/1051 SLP128 T00890067 10117 20089 58012





000
SAUS46 KLOX 211149
MTRSDB
METAR KSDB 211148Z AUTO 34027G33KT 1/2SM FG VV001 09/07 A3003 RMK
AO2 PK WND 34038/1051 SLP128 T00890067 10117 20089 58012





000
SAUS46 KLOX 211148
MTRCQT
METAR KCQT 211147Z AUTO 00000KT 8SM OVC014 19/16 A2989 RMK AO2
SLP118 T01940156 10200 20194 55004





000
SAUS46 KLOX 211148
MTRCQT
METAR KCQT 211147Z AUTO 00000KT 8SM OVC014 19/16 A2989 RMK AO2
SLP118 T01940156 10200 20194 55004





000
SAUS46 KLOX 211144
MTRSDB
SPECI KSDB 211143Z AUTO 34025G36KT 1/2SM FG VV002 09/07 A3003 RMK
AO2 PK WND 34038/1051 T00890067





000
SAUS46 KLOX 211144
MTRSDB
SPECI KSDB 211143Z AUTO 34025G36KT 1/2SM FG VV002 09/07 A3003 RMK
AO2 PK WND 34038/1051 T00890067





000
SAUS46 KLOX 211136
MTRMWS
METAR KMWS 211130Z 23500G00KT MM/M04 RMK SNOW DEPTH 3.00





000
SAUS46 KLOX 211136
MTRMWS
METAR KMWS 211130Z 23500G00KT MM/M04 RMK SNOW DEPTH 3.00





000
SAUS46 KLOX 211127
MTRSDB
SPECI KSDB 211125Z AUTO 34020G30KT 1 1/4SM BR OVC002 09/07 A3004 RMK
AO2 PK WND 34038/1051 T00890067





000
SAUS46 KLOX 211127
MTRSDB
SPECI KSDB 211125Z AUTO 34020G30KT 1 1/4SM BR OVC002 09/07 A3004 RMK
AO2 PK WND 34038/1051 T00890067





000
SAUS46 KLOX 211123
MTRSDB
SPECI KSDB 211121Z AUTO 34022G30KT 2SM HZ OVC002 09/07 A3005 RMK AO2
PK WND 34038/1051 T00940067





000
SAUS46 KLOX 211123
MTRSDB
SPECI KSDB 211121Z AUTO 34022G30KT 2SM HZ OVC002 09/07 A3005 RMK AO2
PK WND 34038/1051 T00940067





000
SAUS46 KLOX 211118
MTRSDB
SPECI KSDB 211117Z AUTO 34020G30KT 1 1/4SM BR OVC002 09/07 A3005 RMK
AO2 PK WND 34038/1051 T00940072





000
SAUS46 KLOX 211118
MTRSDB
SPECI KSDB 211117Z AUTO 34020G30KT 1 1/4SM BR OVC002 09/07 A3005 RMK
AO2 PK WND 34038/1051 T00940072





000
SAUS46 KLOX 211115
MTRMWS
METAR KMWS 211100Z 26004G04KT 12/M09 RMK SNOW DEPTH 3.00





000
SAUS46 KLOX 211115
MTRMWS
METAR KMWS 211100Z 26004G04KT 12/M09 RMK SNOW DEPTH 3.00





000
SAUS46 KLOX 211108
MTRSDB
SPECI KSDB 211106Z AUTO 35024G32KT 1/2SM FG VV002 09/07 A3004 RMK
AO2 PK WND 34038/1051 T00940072





000
SAUS46 KLOX 211108
MTRSDB
SPECI KSDB 211106Z AUTO 35024G32KT 1/2SM FG VV002 09/07 A3004 RMK
AO2 PK WND 34038/1051 T00940072





000
SAUS46 KLOX 211104
MTRSDB
SPECI KSDB 211103Z AUTO 34024G32KT 1/4SM FG VV001 09/07 A3004 RMK
AO2 PK WND 34038/1051 T00940072





000
SAUS46 KLOX 211104
MTRSDB
SPECI KSDB 211103Z AUTO 34024G32KT 1/4SM FG VV001 09/07 A3004 RMK
AO2 PK WND 34038/1051 T00940072





000
SAUS46 KLOX 211058
MTRSDB
SPECI KSDB 211057Z AUTO 35021G38KT 3/4SM BR OVC002 09/07 A3004 RMK
AO2 PK WND 34038/1051 T00940072





000
SAUS46 KLOX 211058
MTRSDB
SPECI KSDB 211057Z AUTO 35021G38KT 3/4SM BR OVC002 09/07 A3004 RMK
AO2 PK WND 34038/1051 T00940072





000
SAUS46 KLOX 211057
MTR9L2
METAR K9L2 211055Z AUTO 28006KT 10SM CLR 14/08 A2993 RMK AO2 SLP121
T01390078 $





000
SAUS46 KLOX 211057
MTR9L2
METAR K9L2 211055Z AUTO 28006KT 10SM CLR 14/08 A2993 RMK AO2 SLP121
T01390078 $





000
SAUS46 KLOX 211055
MTRSDB
SPECI KSDB 211054Z AUTO 36019G38KT 1 3/4SM BR OVC002 09/07 A3004 RMK
AO2 PK WND 34038/1051 T00940072





000
SAUS46 KLOX 211055
MTRSDB
SPECI KSDB 211054Z AUTO 36019G38KT 1 3/4SM BR OVC002 09/07 A3004 RMK
AO2 PK WND 34038/1051 T00940072





000
SAUS46 KLOX 211054
MTRLAX
METAR KLAX 211053Z 13003KT 10SM BKN014 19/17 A2989 RMK AO2 SLP120
T01890167





000
SAUS46 KLOX 211054
MTRMWS
METAR KMWS 211045Z 24505G06KT 12/M14 RMK SNOW DEPTH 3.00





000
SAUS46 KLOX 211054
MTRMWS
METAR KMWS 211045Z 24505G06KT 12/M14 RMK SNOW DEPTH 3.00





000
SAUS46 KLOX 211054
MTRLAX
METAR KLAX 211053Z 13003KT 10SM BKN014 19/17 A2989 RMK AO2 SLP120
T01890167





000
SAUS46 KLOX 211052
MTRSMX
METAR KSMX 211051Z AUTO 34011KT 10SM CLR 18/11 A2996 RMK AO2 SLP144
T01830111





000
SAUS46 KLOX 211052
MTRSMX
METAR KSMX 211051Z AUTO 34011KT 10SM CLR 18/11 A2996 RMK AO2 SLP144
T01830111





000
SAUS46 KLOX 211049
MTRSDB
METAR KSDB 211048Z AUTO 34025G35KT 5SM HZ OVC002 09/07 A3004 RMK AO2
PK WND 34040/1009 SLP131 T00940067





000
SAUS46 KLOX 211049
MTRSDB
METAR KSDB 211048Z AUTO 34025G35KT 5SM HZ OVC002 09/07 A3004 RMK AO2
PK WND 34040/1009 SLP131 T00940067





000
SAUS46 KLOX 211048
MTRCQT
METAR KCQT 211047Z AUTO 00000KT 9SM OVC013 19/16 A2988 RMK AO2
SLP117 T01940156





000
SAUS46 KLOX 211048
MTRCQT
METAR KCQT 211047Z AUTO 00000KT 9SM OVC013 19/16 A2988 RMK AO2
SLP117 T01940156





000
SAUS46 KLOX 211037
MTRSDB
SPECI KSDB 211036Z AUTO 35029G36KT 4SM HZ OVC002 09/07 A3004 RMK AO2
PK WND 34040/1009 T00940067





000
SAUS46 KLOX 211037
MTRSDB
SPECI KSDB 211036Z AUTO 35029G36KT 4SM HZ OVC002 09/07 A3004 RMK AO2
PK WND 34040/1009 T00940067





000
SAUS46 KLOX 211036
MTRMWS
METAR KMWS 211030Z 23500G00KT MM/M12 RMK SNOW DEPTH 2.00





000
SAUS46 KLOX 211036
MTRMWS
METAR KMWS 211030Z 23500G00KT MM/M12 RMK SNOW DEPTH 2.00





000
SAUS46 KLOX 211031
MTRSDB
SPECI KSDB 211030Z AUTO 34029G38KT 2SM BR OVC002 09/07 A3004 RMK AO2
PK WND 34040/1009 VIS 1 1/4V5 T00940072





000
SAUS46 KLOX 211031
MTRSDB
SPECI KSDB 211030Z AUTO 34029G38KT 2SM BR OVC002 09/07 A3004 RMK AO2
PK WND 34040/1009 VIS 1 1/4V5 T00940072





000
SAUS46 KLOX 211028
MTRSDB
SPECI KSDB 211027Z AUTO 34033G38KT 1 1/4SM BR OVC002 09/07 A3004 RMK
AO2 PK WND 34040/1009 T00940072





000
SAUS46 KLOX 211028
MTRSDB
SPECI KSDB 211027Z AUTO 34033G38KT 1 1/4SM BR OVC002 09/07 A3004 RMK
AO2 PK WND 34040/1009 T00940072





000
SAUS46 KLOX 211023
MTRSDB
SPECI KSDB 211022Z AUTO 34029G37KT 1/2SM FG VV001 09/07 A3004 RMK
AO2 PK WND 34040/1009 T00940072





000
SAUS46 KLOX 211023
MTRSDB
SPECI KSDB 211022Z AUTO 34029G37KT 1/2SM FG VV001 09/07 A3004 RMK
AO2 PK WND 34040/1009 T00940072





000
SAUS46 KLOX 211015
MTRMWS
METAR KMWS 211000Z 24504G05KT 13/M10 RMK SNOW DEPTH 2.00





000
SAUS46 KLOX 211015
MTRMWS
METAR KMWS 211000Z 24504G05KT 13/M10 RMK SNOW DEPTH 2.00





000
SAUS46 KLOX 210958
MTR9L2
METAR K9L2 210955Z AUTO 26006KT 10SM CLR 15/08 A2993 RMK AO2 SLP121
T01500083 TSNO $





000
SAUS46 KLOX 210958
MTR9L2
METAR K9L2 210955Z AUTO 26006KT 10SM CLR 15/08 A2993 RMK AO2 SLP121
T01500083 TSNO $





000
SAUS46 KLOX 210957
MTRSDB
SPECI KSDB 210955Z AUTO 33022G32KT 1/4SM FG VV001 10/08 A3006 RMK
AO2 PK WND 34032/0949 T01000078





000
SAUS46 KLOX 210957
MTRSDB
SPECI KSDB 210955Z AUTO 33022G32KT 1/4SM FG VV001 10/08 A3006 RMK
AO2 PK WND 34032/0949 T01000078





000
SAUS46 KLOX 210954
MTRMWS
METAR KMWS 210945Z 23005G06KT 13/M12 RMK SNOW DEPTH 3.00





000
SAUS46 KLOX 210954
MTRLAX
METAR KLAX 210953Z 08003KT 10SM BKN012 18/17 A2990 RMK AO2 SLP121
BKN V SCT T01780167





000
SAUS46 KLOX 210952
MTRSDB
SPECI KSDB 210951Z AUTO 33025G32KT 1/2SM FG VV002 10/08 A3005 RMK
AO2 PK WND 34032/0949 T01000078





000
SAUS46 KLOX 210952
MTRSMX
METAR KSMX 210951Z AUTO 33009KT 10SM CLR 17/11 A2997 RMK AO2 SLP150
T01720106





000
SAUS46 KLOX 210948
MTRSDB
METAR KSDB 210947Z AUTO 34021G30KT 1SM BR VV002 10/08 A3006 RMK AO2
PK WND 35030/0947 SLP133 T01000078





000
SAUS46 KLOX 210948
MTRCQT
METAR KCQT 210947Z AUTO 00000KT 10SM OVC012 20/16 A2988 RMK AO2
SLP117 T02000161





000
SAUS46 KLOX 210942
MTRSDB
SPECI KSDB 210940Z AUTO 34021G25KT 2SM BR OVC002 10/08 A3006 RMK AO2
PK WND 35026/0900 T01000078





000
SAUS46 KLOX 210936
MTRMWS
METAR KMWS 210930Z 23500G00KT MM/M11 RMK SNOW DEPTH 3.00





000
SAUS46 KLOX 210933
MTRSDB
SPECI KSDB 210932Z AUTO 36011G20KT 5SM HZ BKN002 OVC007 11/08 A3007
RMK AO2 PK WND 35026/0900 T01060078





000
SAUS46 KLOX 210927
MTRLAX
SPECI KLAX 210926Z 09005KT 10SM SCT012 18/17 A2989 RMK AO2





000
SAUS46 KLOX 210923
MTRSDB
SPECI KSDB 210922Z AUTO 36009G16KT 2SM BR OVC002 11/08 A3007 RMK AO2
PK WND 35026/0900 T01060083





000
SAUS46 KLOX 210916
MTRSDB
SPECI KSDB 210915Z AUTO 35013G25KT 3SM BR OVC002 11/08 A3006 RMK AO2
PK WND 35026/0900 T01060083





000
SAUS46 KLOX 210915
MTRMWS
METAR KMWS 210900Z 02001G02KT 11/M02 RMK SNOW DEPTH 3.00





000
SAUS46 KLOX 210913
MTRSDB
SPECI KSDB 210912Z AUTO 35019G25KT 1 1/2SM BR OVC002 11/08 A3006 RMK
AO2 PK WND 35026/0900 T01060083





000
SAUS46 KLOX 210908
MTRSDB
SPECI KSDB 210906Z AUTO 34017G26KT 3/4SM BR VV002 11/08 A3007 RMK
AO2 PK WND 35026/0900 T01060083





000
SAUS46 KLOX 210858
MTR9L2
METAR K9L2 210855Z AUTO 28012KT 10SM CLR 17/08 A2994 RMK AO2 SLP123
T01670083 53004 TSNO $





000
SAUS46 KLOX 210855
MTRLAX
METAR KLAX 210853Z 08004KT 10SM BKN012 19/17 A2990 RMK AO2 SLP123
T01890172 50000





000
SAUS46 KLOX 210854
MTRMWS
METAR KMWS 210845Z  0502G03KT 11/M02 RMK SNOW DEPTH 3.00





000
SAUS46 KLOX 210852
MTRSMX
METAR KSMX 210851Z AUTO 32007KT 10SM CLR 15/12 A2998 RMK AO2 SLP154
T01500117 56002





000
SAUS46 KLOX 210849
MTRSDB
METAR KSDB 210848Z AUTO 34017G29KT 3/4SM BR VV001 11/09 A3007 RMK
AO2 PK WND 34029/0843 VIS 1/2V4 SLP136 T01110089 53001





000
SAUS46 KLOX 210848
MTRCQT
METAR KCQT 210847Z AUTO 00000KT 10SM OVC012 19/16 A2990 RMK AO2
SLP123 T01940161 58000





000
SAUS46 KLOX 210836
MTRMWS
METAR KMWS 210830Z 23500G00KT MM/M02 RMK SNOW DEPTH 2.00





000
SAUS46 KLOX 210815
MTRMWS
METAR KMWS 210800Z 23505G07KT 11/00 RMK SNOW DEPTH 3.00





000
SAUS46 KLOX 210758
MTRSDB
SPECI KSDB 210757Z AUTO 34020G30KT 1/4SM FG VV001 11/09 A3007 RMK
AO2 PK WND 34030/0751 T01110089





000
SAUS46 KLOX 210758
MTR9L2
METAR K9L2 210755Z AUTO 28010KT 10SM CLR 17/08 A2993 RMK AO2 SLP121
T01720078 403000083 TSNO $





000
SAUS46 KLOX 210754
MTRMWS
METAR KMWS 210745Z 23504G06KT 12/00 RMK SNOW DEPTH 3.00





000
SAUS46 KLOX 210754
MTRLAX
METAR KLAX 210753Z 02003KT 10SM BKN011 19/18 A2991 RMK AO2 SLP126
T01940178 402280183





000
SAUS46 KLOX 210753
MTRSMX
METAR KSMX 210751Z AUTO 33004KT 7SM CLR 16/13 A2999 RMK AO2 SLP154
T01560133 402440144





000
SAUS46 KLOX 210749
MTRSDB
METAR KSDB 210748Z AUTO 34023G32KT 1/2SM FG VV001 11/09 A3006 RMK
AO2 PK WND 34035/0719 SLP134 T01110089 402560106





000
SAUS46 KLOX 210748
MTRCQT
METAR KCQT 210747Z AUTO 00000KT 10SM OVC011 19/17 A2990 RMK AO2
SLP124 T01940167 402610172





000
SAUS46 KLOX 210736
MTRMWS
METAR KMWS 210730Z 23500G00KT MM/00 RMK SNOW DEPTH 3.00





000
SAUS46 KLOX 210736
MTRLAX
SPECI KLAX 210734Z 26005KT 10SM BKN011 19/18 A2991 RMK AO2





000
SAUS46 KLOX 210722
MTRSDB
SPECI KSDB 210721Z AUTO 33022G35KT 1/4SM FG VV001 12/09 A3006 RMK
AO2 PK WND 34035/0719 T01170094





000
SAUS46 KLOX 210718
MTRSDB
SPECI KSDB 210717Z AUTO 34023G28KT 1/2SM FG VV001 12/09 A3006 RMK
AO2 PK WND 35032/0704 T01170094





000
SAUS46 KLOX 210715
MTRMWS
METAR KMWS 210700Z 24005G06KT 13/00 RMK SNOW DEPTH 3.00





000
SAUS46 KLOX 210712
MTRSDB
SPECI KSDB 210711Z AUTO 34020G32KT 1/2SM FG BKN002 BKN006 12/09
A3006 RMK AO2 PK WND 35032/0704 T01170094





000
SAUS46 KLOX 210706
MTRSDB
SPECI KSDB 210705Z AUTO 34026G32KT 1 1/4SM BR BKN002 BKN006 12/09
A3006 RMK AO2 PK WND 35032/0704 T01170094





000
SAUS46 KLOX 210703
MTRSDB
SPECI KSDB 210702Z AUTO 34020G30KT 2 1/2SM HZ BKN002 BKN006 12/09
A3006 RMK AO2 PK WND 35030/0653 T01170089





000
SAUS46 KLOX 210659
MTR9L2
METAR K9L2 210655Z AUTO 28011KT 10SM CLR 18/08 A2993 RMK AO2 SLP122
T01780078 TSNO $





000
SAUS46 KLOX 210657
MTRMWS
METAR KMWS 210645Z 24504G05KT 13/00 RMK SNOW DEPTH 3.00





000
SAUS46 KLOX 210654
MTRLAX
METAR KLAX 210653Z 00000KT 10SM FEW011 19/18 A2990 RMK AO2 SLP122
T01940178





000
SAUS46 KLOX 210652
MTRSMX
METAR KSMX 210651Z AUTO 00000KT 8SM CLR 15/13 A2998 RMK AO2 SLP153
T01500128





000
SAUS46 KLOX 210649
MTRSDB
METAR KSDB 210648Z AUTO 34022G33KT 8SM FEW006 12/09 A3006 RMK AO2 PK
WND 36033/0642 SLP132 T01220089





000
SAUS46 KLOX 210648
MTRCQT
METAR KCQT 210647Z AUTO 00000KT 10SM BKN013 19/16 A2990 RMK AO2
SLP123 T01940161





000
SAUS46 KLOX 210644
MTRCQT
SPECI KCQT 210643Z AUTO 00000KT 10SM BKN013 19/16 A2990 RMK AO2
T01940161





000
SAUS46 KLOX 210636
MTRMWS
METAR KMWS 210630Z 23500G00KT MM/00 RMK SNOW DEPTH 3.00





000
SAUS46 KLOX 210615
MTRMWS
METAR KMWS 210600Z 23006G07KT 12/M01 RMK SNOW DEPTH 3.00





000
SAUS46 KLOX 210558
MTR9L2
METAR K9L2 210555Z AUTO 26009KT 10SM CLR 18/07 A2993 RMK AO2 SLP124
T01780067 10278 20178 51009 TSNO $





000
SAUS46 KLOX 210557
MTRMWS
METAR KMWS 210545Z 23505G06KT 13/M01 RMK SNOW DEPTH 3.00





000
SAUS46 KLOX 210554
MTRLAX
METAR KLAX 210553Z 25005KT 10SM FEW011 19/18 A2990 RMK AO2 SLP123
T01940178 10206 20194 53003





000
SAUS46 KLOX 210553
MTRSMX
METAR KSMX 210551Z AUTO 00000KT 9SM CLR 16/14 A2999 RMK AO2 SLP157
T01610139 10222 20161 51010





000
SAUS46 KLOX 210549
MTRSDB
METAR KSDB 210548Z AUTO 33024G29KT 10SM CLR 14/07 A3006 RMK AO2 PK
WND 33029/0548 SLP132 T01440072 10211 20144 53006





000
SAUS46 KLOX 210548
MTRCQT
METAR KCQT 210547Z AUTO 00000KT 10SM CLR 19/16 A2990 RMK AO2 SLP123
T01940161 10222 20194 53005





000
SAUS46 KLOX 210536
MTRMWS
METAR KMWS 210530Z 23500G00KT MM/M01 RMK SNOW DEPTH 3.00





000
SAUS46 KLOX 210515
MTRMWS
METAR KMWS 210500Z 25005G06KT 12/M01 RMK SNOW DEPTH 3.00





000
SAUS46 KLOX 210458
MTR9L2
METAR K9L2 210455Z AUTO 27009KT 10SM CLR 18/06 A2993 RMK AO2 SLP124
T01830061 TSNO $





000
SAUS46 KLOX 210457
MTRMWS
METAR KMWS 210445Z 25504G05KT 13/01 RMK SNOW DEPTH 3.00





000
SAUS46 KLOX 210457
MTRMWS
METAR KMWS 210445Z 25504G05KT 13/01 RMK SNOW DEPTH 3.00





000
SAUS46 KLOX 210454
MTRLAX
METAR KLAX 210453Z 00000KT 10SM FEW250 19/18 A2990 RMK AO2 SLP123
T01940178





000
SAUS46 KLOX 210454
MTRLAX
METAR KLAX 210453Z 00000KT 10SM FEW250 19/18 A2990 RMK AO2 SLP123
T01940178





000
SAUS46 KLOX 210453
MTRSMX
METAR KSMX 210451Z AUTO 33003KT 8SM CLR 16/13 A2999 RMK AO2 SLP156
T01610133





000
SAUS46 KLOX 210453
MTRSMX
METAR KSMX 210451Z AUTO 33003KT 8SM CLR 16/13 A2999 RMK AO2 SLP156
T01610133





000
SAUS46 KLOX 210449
MTRSDB
METAR KSDB 210448Z AUTO 33017G25KT 10SM CLR 14/08 A3005 RMK AO2
SLP132 T01440078





000
SAUS46 KLOX 210448
MTRCQT
METAR KCQT 210447Z AUTO 00000KT 10SM CLR 19/16 A2990 RMK AO2 SLP123
T01940161





000
SAUS46 KLOX 210448
MTRCQT
METAR KCQT 210447Z AUTO 00000KT 10SM CLR 19/16 A2990 RMK AO2 SLP123
T01940161





000
SAUS46 KLOX 210436
MTRMWS
METAR KMWS 210430Z 23500G00KT MM/02 RMK SNOW DEPTH 3.00





000
SAUS46 KLOX 210436
MTRMWS
METAR KMWS 210430Z 23500G00KT MM/02 RMK SNOW DEPTH 3.00





000
SAUS46 KLOX 210415
MTRMWS
METAR KMWS 210400Z 24507G09KT 13/02 RMK SNOW DEPTH 3.00





000
SAUS46 KLOX 210415
MTRMWS
METAR KMWS 210400Z 24507G09KT 13/02 RMK SNOW DEPTH 3.00





000
SAUS46 KLOX 210359
MTR9L2
METAR K9L2 210355Z AUTO 26009KT 10SM CLR 20/04 A2992 RMK AO2 SLP120
T02000044 TSNO $





000
SAUS46 KLOX 210359
MTR9L2
METAR K9L2 210355Z AUTO 26009KT 10SM CLR 20/04 A2992 RMK AO2 SLP120
T02000044 TSNO $





000
SAUS46 KLOX 210354
MTRMWS
METAR KMWS 210345Z 23506G08KT 13/03 RMK SNOW DEPTH 3.00





000
SAUS46 KLOX 210354
MTRMWS
METAR KMWS 210345Z 23506G08KT 13/03 RMK SNOW DEPTH 3.00





000
SAUS46 KLOX 210354
MTRLAX
METAR KLAX 210353Z 24005KT 10SM SCT011 19/17 A2989 RMK AO2 SLP121
T01940172





000
SAUS46 KLOX 210354
MTRLAX
METAR KLAX 210353Z 24005KT 10SM SCT011 19/17 A2989 RMK AO2 SLP121
T01940172





000
SAUS46 KLOX 210352
MTRSMX
METAR KSMX 210351Z AUTO 28004KT 8SM CLR 17/14 A2998 RMK AO2 SLP152
T01720144





000
SAUS46 KLOX 210352
MTRSMX
METAR KSMX 210351Z AUTO 28004KT 8SM CLR 17/14 A2998 RMK AO2 SLP152
T01720144





000
SAUS46 KLOX 210349
MTRSDB
METAR KSDB 210348Z AUTO 33014G27KT 10SM CLR 15/07 A3004 RMK AO2 PK
WND 33027/0342 SLP130 T01500067





000
SAUS46 KLOX 210349
MTRSDB
METAR KSDB 210348Z AUTO 33014G27KT 10SM CLR 15/07 A3004 RMK AO2 PK
WND 33027/0342 SLP130 T01500067





000
SAUS46 KLOX 210348
MTRCQT
METAR KCQT 210347Z AUTO 00000KT 10SM CLR 19/16 A2989 RMK AO2 SLP119
T01940161





000
SAUS46 KLOX 210336
MTRMWS
METAR KMWS 210330Z 23500G00KT MM/03 RMK SNOW DEPTH 3.00





000
SAUS46 KLOX 210336
MTRMWS
METAR KMWS 210330Z 23500G00KT MM/03 RMK SNOW DEPTH 3.00





000
SAUS46 KLOX 210315
MTRMWS
METAR KMWS 210300Z 24505G07KT 13/04 RMK SNOW DEPTH 3.00





000
SAUS46 KLOX 210315
MTRMWS
METAR KMWS 210300Z 24505G07KT 13/04 RMK SNOW DEPTH 3.00





000
SAUS46 KLOX 210258
MTR9L2
METAR K9L2 210255Z AUTO 28011KT 10SM CLR 19/06 A2990 RMK AO2 SLP119
T01940056 53017 TSNO $





000
SAUS46 KLOX 210254
MTRMWS
METAR KMWS 210245Z 25005G07KT 13/03 RMK SNOW DEPTH 3.00





000
SAUS46 KLOX 210254
MTRLAX
METAR KLAX 210253Z 26009KT 10SM FEW150 SCT250 19/17 A2989 RMK AO2
SLP121 T01940167 53006





000
SAUS46 KLOX 210254
MTRLAX
METAR KLAX 210253Z 26009KT 10SM FEW150 SCT250 19/17 A2989 RMK AO2
SLP121 T01940167 53006





000
SAUS46 KLOX 210254
MTRMWS
METAR KMWS 210245Z 25005G07KT 13/03 RMK SNOW DEPTH 3.00





000
SAUS46 KLOX 210252
MTRSMX
METAR KSMX 210251Z 00000KT 9SM CLR 17/15 A2996 RMK AO2 SLP147
T01720150 53009





000
SAUS46 KLOX 210252
MTRSMX
METAR KSMX 210251Z 00000KT 9SM CLR 17/15 A2996 RMK AO2 SLP147
T01720150 53009





000
SAUS46 KLOX 210249
MTRSDB
METAR KSDB 210248Z AUTO 34013KT 10SM CLR 16/04 A3004 RMK AO2 SLP130
T01610044 53006





000
SAUS46 KLOX 210249
MTRSDB
METAR KSDB 210248Z AUTO 34013KT 10SM CLR 16/04 A3004 RMK AO2 SLP130
T01610044 53006





000
SAUS46 KLOX 210248
MTRCQT
METAR KCQT 210247Z AUTO 00000KT 10SM CLR 20/16 A2989 RMK AO2 SLP119
T02000161 53009





000
SAUS46 KLOX 210248
MTRCQT
METAR KCQT 210247Z AUTO 00000KT 10SM CLR 20/16 A2989 RMK AO2 SLP119
T02000161 53009





000
SAUS46 KLOX 210236
MTRMWS
METAR KMWS 210230Z 23500G00KT MM/04 RMK SNOW DEPTH 3.00





000
SAUS46 KLOX 210215
MTRMWS
METAR KMWS 210200Z 24503G04KT 13/03 RMK SNOW DEPTH 3.00





000
SAUS46 KLOX 210215
MTRMWS
METAR KMWS 210200Z 24503G04KT 13/03 RMK SNOW DEPTH 3.00





000
SAUS46 KLOX 210204
MTRSMX
SPECI KSMX 210203Z 30005KT 10SM SCT022 18/15 A2995 RMK AO2 T01830150





000
SAUS46 KLOX 210204
MTRSMX
SPECI KSMX 210203Z 30005KT 10SM SCT022 18/15 A2995 RMK AO2 T01830150





000
SAUS46 KLOX 210159
MTR9L2
METAR K9L2 210155Z AUTO 27012G16KT 10SM CLR 22/04 A2988 RMK AO2
SLP112 T02220039 $





000
SAUS46 KLOX 210159
MTR9L2
METAR K9L2 210155Z AUTO 27012G16KT 10SM CLR 22/04 A2988 RMK AO2
SLP112 T02220039 $





000
SAUS46 KLOX 210155
MTRLAX
METAR KLAX 210153Z 27011KT 10SM FEW014 SCT150 SCT250 19/17 A2988 RMK
AO2 SLP117 T01940167





000
SAUS46 KLOX 210155
MTRLAX
METAR KLAX 210153Z 27011KT 10SM FEW014 SCT150 SCT250 19/17 A2988 RMK
AO2 SLP117 T01940167





000
SAUS46 KLOX 210154
MTRMWS
METAR KMWS 210145Z 23005G06KT 15/03 RMK SNOW DEPTH 3.00





000
SAUS46 KLOX 210154
MTRMWS
METAR KMWS 210145Z 23005G06KT 15/03 RMK SNOW DEPTH 3.00





000
SAUS46 KLOX 210152
MTRSMX
METAR KSMX 210151Z 30010KT 10SM BKN022 19/16 A2995 RMK AO2 SLP143
T01890156





000
SAUS46 KLOX 210152
MTRSMX
METAR KSMX 210151Z 30010KT 10SM BKN022 19/16 A2995 RMK AO2 SLP143
T01890156





000
SAUS46 KLOX 210149
MTRSDB
METAR KSDB 210148Z AUTO 32009KT 10SM CLR 17/03 A3003 RMK AO2 SLP127
T01720028





000
SAUS46 KLOX 210149
MTRSDB
METAR KSDB 210148Z AUTO 32009KT 10SM CLR 17/03 A3003 RMK AO2 SLP127
T01720028





000
SAUS46 KLOX 210149
MTRCQT
METAR KCQT 210147Z AUTO VRB03KT 10SM CLR 21/16 A2987 RMK AO2 SLP115
T02060161





000
SAUS46 KLOX 210149
MTRCQT
METAR KCQT 210147Z AUTO VRB03KT 10SM CLR 21/16 A2987 RMK AO2 SLP115
T02060161





000
SAUS46 KLOX 210141
MTRSMX
SPECI KSMX 210140Z 30012G19KT 10SM FEW011 BKN022 19/16 A2995 RMK AO2
T01890156





000
SAUS46 KLOX 210136
MTRMWS
METAR KMWS 210130Z 23500G00KT MM/03 RMK SNOW DEPTH 3.00





000
SAUS46 KLOX 210115
MTRMWS
METAR KMWS 210100Z 22505G07KT 16/04 RMK SNOW DEPTH 3.00





000
SAUS46 KLOX 210058
MTR9L2
METAR K9L2 210055Z AUTO 23016G23KT 10SM CLR 25/05 A2985 RMK AO2
SLP100 T02500050 $





000
SAUS46 KLOX 210054
MTRMWS
METAR KMWS 210045Z 23006G07KT 18/05 RMK SNOW DEPTH 3.00





000
SAUS46 KLOX 210054
MTRLAX
METAR KLAX 210053Z COR 26010KT 10SM FEW015 SCT150 SCT250 20/17 A2987
RMK AO2 SLP113 T02000167





000
SAUS46 KLOX 210052
MTRSMX
METAR KSMX 210051Z 30013KT 10SM SCT030 20/15 A2994 RMK AO2 PK WND
29032/0010 SLP140 T02000150





000
SAUS46 KLOX 210049
MTRSDB
METAR KSDB 210048Z AUTO 32013KT 10SM CLR 18/02 A3002 RMK AO2 SLP120
T01780022





000
SAUS46 KLOX 210048
MTRCQT
METAR KCQT 210047Z AUTO 27004KT 10SM CLR 21/16 A2986 RMK AO2 SLP109
T02110156





000
SAUS46 KLOX 210036
MTRMWS
METAR KMWS 210030Z 23500G00KT MM/07 RMK SNOW DEPTH 4.00





000
SAUS46 KLOX 210015
MTRMWS
METAR KMWS 210000Z 22505G07KT 20/07 RMK SNOW DEPTH 4.00





000
SAUS46 KLOX 202359
MTRLAX
METAR KLAX 202353Z COR 27012KT 10SM FEW015 SCT150 SCT250 21/17 A2987
RMK AO2 SLP114 T02060167 10228 20206 58008





000
SAUS46 KLOX 202358
MTR9L2
METAR K9L2 202355Z AUTO 22016G24KT 10SM CLR 28/03 A2985 RMK AO2
SLP096 T02780028 10300 20211 56008 TSNO $





000
SAUS46 KLOX 202354
MTRMWS
METAR KMWS 202345Z 23506G08KT 20/06 RMK SNOW DEPTH 4.00





000
SAUS46 KLOX 202354
MTRLAX
METAR KLAX 202353Z 27012KT 10SM R25R/2400VP6000FT FEW015 SCT150
SCT250 21/17 A2987 RMK AO2 SLP114 T02060167 10228 20206 58008





000
SAUS46 KLOX 202352
MTRSMX
METAR KSMX 202351Z 30020KT 10SM FEW030 22/15 A2993 RMK AO2 SLP137
T02220150 10244 20206 55002





000
SAUS46 KLOX 202349
MTRCQT
METAR KCQT 202347Z AUTO VRB05KT 10SM CLR 22/16 A2986 RMK AO2 SLP110
T02220156 10261 20211 58005





000
SAUS46 KLOX 202349
MTRSDB
METAR KSDB 202348Z AUTO 00000KT 10SM CLR 21/02 A3002 RMK AO2 SLP117
T02110022 10256 20211 53002





000
SAUS46 KLOX 202336
MTRMWS
METAR KMWS 202330Z 23500G00KT MM/08 RMK SNOW DEPTH 4.00





000
SAUS46 KLOX 202315
MTRMWS
METAR KMWS 202300Z 22005G07KT 20/08 RMK SNOW DEPTH 4.00





000
SAUS46 KLOX 202259
MTR9L2
METAR K9L2 202255Z AUTO 23016G22KT 10SM CLR 29/02 A2986 RMK AO2
SLP097 T02890017 $





000
SAUS46 KLOX 202259
MTR9L2
METAR K9L2 202255Z AUTO 23016G22KT 10SM CLR 29/02 A2986 RMK AO2
SLP097 T02890017 $





000
SAUS46 KLOX 202254
MTRLAX
METAR KLAX 202253Z 27012KT 10SM FEW150 SCT250 21/16 A2988 RMK AO2
SLP118 T02110161





000
SAUS46 KLOX 202254
MTRMWS
METAR KMWS 202245Z 22506G09KT 21/10 RMK SNOW DEPTH 4.00





000
SAUS46 KLOX 202254
MTRLAX
METAR KLAX 202253Z 27012KT 10SM FEW150 SCT250 21/16 A2988 RMK AO2
SLP118 T02110161





000
SAUS46 KLOX 202254
MTRMWS
METAR KMWS 202245Z 22506G09KT 21/10 RMK SNOW DEPTH 4.00





000
SAUS46 KLOX 202252
MTRSMX
METAR KSMX 202251Z 30018KT 10SM SCT250 23/14 A2993 RMK AO2 SLP136
T02330139





000
SAUS46 KLOX 202252
MTRSMX
METAR KSMX 202251Z 30018KT 10SM SCT250 23/14 A2993 RMK AO2 SLP136
T02330139





000
SAUS46 KLOX 202249
MTRCQT
METAR KCQT 202247Z AUTO VRB05KT 10SM CLR 24/16 A2987 RMK AO2 SLP111
T02390156





000
SAUS46 KLOX 202249
MTRSDB
METAR KSDB 202248Z AUTO 18013G19KT 10SM CLR 23/05 A3001 RMK AO2
SLP112 T02330050





000
SAUS46 KLOX 202215
MTRMWS
METAR KMWS 202200Z 23007G08KT 22/06 RMK SNOW DEPTH 4.00





000
SAUS46 KLOX 202215
MTRMWS
METAR KMWS 202200Z 23007G08KT 22/06 RMK SNOW DEPTH 4.00





000
SAUS46 KLOX 202157
MTR9L2
METAR K9L2 202155Z AUTO 25018G24KT 10SM CLR 29/02 A2986 RMK AO2
SLP100 T02940017 $





000
SAUS46 KLOX 202157
MTR9L2
METAR K9L2 202155Z AUTO 25018G24KT 10SM CLR 29/02 A2986 RMK AO2
SLP100 T02940017 $





000
SAUS46 KLOX 202154
MTRMWS
METAR KMWS 202145Z 24007G08KT 22/05 RMK SNOW DEPTH 4.00





000
SAUS46 KLOX 202154
MTRLAX
METAR KLAX 202153Z 26013KT 10SM FEW080 SCT180 SCT250 22/16 A2989 RMK
AO2 SLP121 T02170161





000
SAUS46 KLOX 202154
MTRMWS
METAR KMWS 202145Z 24007G08KT 22/05 RMK SNOW DEPTH 4.00





000
SAUS46 KLOX 202154
MTRLAX
METAR KLAX 202153Z 26013KT 10SM FEW080 SCT180 SCT250 22/16 A2989 RMK
AO2 SLP121 T02170161





000
SAUS46 KLOX 202153
MTRSMX
METAR KSMX 202151Z 29017KT 10SM FEW030 SCT250 24/14 A2993 RMK AO2
SLP136 T02390144





000
SAUS46 KLOX 202153
MTRSMX
METAR KSMX 202151Z 29017KT 10SM FEW030 SCT250 24/14 A2993 RMK AO2
SLP136 T02390144





000
SAUS46 KLOX 202149
MTRSDB
METAR KSDB 202148Z AUTO 15013G22KT 130V190 10SM CLR 24/05 A3001 RMK
AO2 SLP110 T02440050





000
SAUS46 KLOX 202149
MTRSDB
METAR KSDB 202148Z AUTO 15013G22KT 130V190 10SM CLR 24/05 A3001 RMK
AO2 SLP110 T02440050





000
SAUS46 KLOX 202148
MTRCQT
METAR KCQT 202147Z AUTO 27008KT 10SM CLR 24/16 A2987 RMK AO2 SLP113
T02440161





000
SAUS46 KLOX 202148
MTRCQT
METAR KCQT 202147Z AUTO 27008KT 10SM CLR 24/16 A2987 RMK AO2 SLP113
T02440161





000
SAUS46 KLOX 202136
MTRMWS
METAR KMWS 202130Z 23500G00KT MM/07 RMK SNOW DEPTH 5.00





000
SAUS46 KLOX 202136
MTRMWS
METAR KMWS 202130Z 23500G00KT MM/07 RMK SNOW DEPTH 5.00





000
SAUS46 KLOX 202121
MTRMWS
METAR KMWS 202115Z 23500G00KT MM/06 RMK SNOW DEPTH 4.00





000
SAUS46 KLOX 202115
MTRMWS
METAR KMWS 202100Z 23007G09KT 22/03 RMK SNOW DEPTH 4.00





000
SAUS46 KLOX 202059
MTR9L2
METAR K9L2 202055Z AUTO 22014G19KT 10SM CLR 29/02 A2987 RMK AO2
SLP102 T02940022 56025 $





000
SAUS46 KLOX 202054
MTRMWS
METAR KMWS 202045Z 23007G09KT 22/07 RMK SNOW DEPTH 4.00





000
SAUS46 KLOX 202054
MTRLAX
METAR KLAX 202053Z 25010KT 10SM FEW027 SCT180 SCT250 22/17 A2990 RMK
AO2 SLP121 T02220167 58019





000
SAUS46 KLOX 202053
MTRSMX
METAR KSMX 202051Z 30016KT 10SM FEW030 23/14 A2994 RMK AO2 SLP139
T02330139 56016





000
SAUS46 KLOX 202049
MTRSDB
METAR KSDB 202048Z AUTO 17015G22KT 10SM CLR 24/06 A3001 RMK AO2
SLP110 T02440061 58016





000
SAUS46 KLOX 202048
MTRCQT
METAR KCQT 202047Z AUTO 00000KT 9SM CLR 26/16 A2987 RMK AO2 SLP114
T02560156 58024





000
SAUS46 KLOX 202036
MTRMWS
METAR KMWS 202030Z 23500G00KT MM/06 RMK SNOW DEPTH 4.00





000
SAUS46 KLOX 202015
MTRMWS
METAR KMWS 202000Z 23005G07KT 22/05 RMK SNOW DEPTH 4.00





000
SAUS46 KLOX 201959
MTR9L2
METAR K9L2 201955Z AUTO 24011G20KT 10SM CLR 29/03 A2989 RMK AO2
SLP108 T02890028 TSNO $





000
SAUS46 KLOX 201954
MTRMWS
METAR KMWS 201945Z 22006G09KT 22/07 RMK SNOW DEPTH 4.00





000
SAUS46 KLOX 201954
MTRLAX
METAR KLAX 201953Z 24006KT 10SM FEW025 SCT180 23/16 A2991 RMK AO2
SLP127 T02280161





000
SAUS46 KLOX 201952
MTRSMX
METAR KSMX 201951Z 31012KT 10SM CLR 24/14 A2995 RMK AO2 SLP142
T02390139





000
SAUS46 KLOX 201949
MTRSDB
METAR KSDB 201948Z AUTO 16011G20KT 10SM CLR 24/06 A3003 RMK AO2
SLP116 T02440061





000
SAUS46 KLOX 201948
MTRCQT
METAR KCQT 201947Z AUTO 00000KT 8SM CLR 24/16 A2990 RMK AO2 SLP123
T02440156





000
SAUS46 KLOX 201936
MTRMWS
METAR KMWS 201930Z 23500G00KT MM/06 RMK SNOW DEPTH 5.00





000
SAUS46 KLOX 201915
MTRMWS
METAR KMWS 201900Z 23006G08KT 21/05 RMK SNOW DEPTH 4.00





000
SAUS46 KLOX 201901
MTRLAX
SPECI KLAX 201901Z 26007KT 10SM SCT025 BKN180 22/16 A2994 RMK AO2





000
SAUS46 KLOX 201859
MTR9L2
METAR K9L2 201855Z AUTO 00000KT 10SM CLR 24/04 A2993 RMK AO2 SLP125
T02390039 $





000
SAUS46 KLOX 201854
MTRLAX
METAR KLAX 201853Z 26007KT 8SM FEW020 BKN025 22/16 A2994 RMK AO2
SLP137 T02170161





000
SAUS46 KLOX 201854
MTRMWS
METAR KMWS 201845Z 21505G07KT 21/06 RMK SNOW DEPTH 4.00





000
SAUS46 KLOX 201853
MTRSMX
METAR KSMX 201851Z 28007KT 10SM FEW019 22/14 A2997 RMK AO2 SLP149
T02220139





000
SAUS46 KLOX 201849
MTRSDB
METAR KSDB 201848Z AUTO 19010KT 10SM CLR 24/04 A3006 RMK AO2 SLP126
T02390039





000
SAUS46 KLOX 201849
MTRCQT
METAR KCQT 201847Z AUTO 25004KT 7SM FEW022 23/16 A2994 RMK AO2
SLP135 T02280156





000
SAUS46 KLOX 201837
MTRCQT
SPECI KCQT 201836Z AUTO 00000KT 6SM HZ SCT021 23/16 A2994 RMK AO2
T02330161





000
SAUS46 KLOX 201836
MTRMWS
METAR KMWS 201830Z 23500G00KT MM/06 RMK SNOW DEPTH 4.00





000
SAUS46 KLOX 201820
MTRSMX
SPECI KSMX 201819Z 29007KT 10SM SCT019 22/13 A2998 RMK AO2 T02170133





000
SAUS46 KLOX 201815
MTRMWS
METAR KMWS 201800Z 21504G05KT 20/06 RMK SNOW DEPTH 4.00





000
SAUS46 KLOX 201759
MTR9L2
METAR K9L2 201755Z AUTO 00000KT 10SM CLR 21/04 A2995 RMK AO2 SLP132
T02110039 10211 20083 50004 $





000
SAUS46 KLOX 201754
MTRLAX
METAR KLAX 201753Z 00000KT 8SM SCT021 BKN023 22/16 A2995 RMK AO2
SLP140 T02170161 10222 20189 51013





000
SAUS46 KLOX 201753
MTRSMX
METAR KSMX 201751Z 28003KT 10SM BKN019 21/13 A2999 RMK AO2 SLP156
T02060133 10206 20167 51012





000
SAUS46 KLOX 201749
MTRSDB
METAR KSDB 201748Z AUTO 21010KT 10SM CLR 22/03 A3007 RMK AO2 SLP131
T02170033 10222 20156 51009





000
SAUS46 KLOX 201748
MTRCQT
METAR KCQT 201747Z AUTO 00000KT 6SM HZ OVC018 21/15 A2995 RMK AO2
SLP138 T02110150 10211 20172 51014





000
SAUS46 KLOX 201736
MTRMWS
METAR KMWS 201730Z 23500G00KT MM/04 RMK SNOW DEPTH 3.00





000
SAUS46 KLOX 201715
MTRMWS
METAR KMWS 201700Z 23500G00KT MM/03 RMK SNOW DEPTH 4.00





000
SAUS46 KLOX 201658
MTR9L2
METAR K9L2 201655Z AUTO 00000KT 10SM CLR 18/04 A2996 RMK AO2 SLP134
T01780044 TSNO $





000
SAUS46 KLOX 201654
MTRMWS
METAR KMWS 201645Z 23003G06KT 20/02 RMK SNOW DEPTH 4.00





000
SAUS46 KLOX 201654
MTRLAX
METAR KLAX 201653Z VRB03KT 10SM OVC021 21/16 A2995 RMK AO2 SLP140
T02060161





000
SAUS46 KLOX 201652
MTRSMX
METAR KSMX 201651Z 08003KT 10SM OVC018 18/13 A2999 RMK AO2 SLP156
T01830128





000
SAUS46 KLOX 201649
MTRSDB
METAR KSDB 201648Z AUTO 20007KT 10SM CLR 20/04 A3007 RMK AO2 SLP131
T02000039





000
SAUS46 KLOX 201648
MTRCQT
METAR KCQT 201647Z AUTO 00000KT 6SM HZ OVC017 20/16 A2995 RMK AO2
SLP139 T02000156





000
SAUS46 KLOX 201639
MTRSMX
SPECI KSMX 201638Z VRB03KT 10SM OVC016 18/13 A2999 RMK AO2 T01830128





000
SAUS46 KLOX 201636
MTRMWS
METAR KMWS 201630Z 23500G00KT MM/03 RMK SNOW DEPTH 3.00





000
SAUS46 KLOX 201629
MTRSMX
SPECI KSMX 201628Z 03003KT 10SM OVC014 18/13 A2999 RMK AO2 T01830128





000
SAUS46 KLOX 201615
MTRMWS
METAR KMWS 201600Z 21004G06KT 18/02 RMK SNOW DEPTH 3.00





000
SAUS46 KLOX 201558
MTR9L2
METAR K9L2 201555Z AUTO 00000KT 10SM CLR 16/04 A2996 RMK AO2 SLP134
T01610039 TSNO $





000
SAUS46 KLOX 201554
MTRLAX
METAR KLAX 201553Z 11004KT 7SM SCT015 OVC017 20/16 A2994 RMK AO2
SLP137 T02000161





000
SAUS46 KLOX 201554
MTRMWS
METAR KMWS 201545Z 18504G05KT 18/03 RMK SNOW DEPTH 3.00





000
SAUS46 KLOX 201552
MTRSMX
METAR KSMX 201551Z 03004KT 10SM OVC017 18/13 A2998 RMK AO2 SLP153
T01780128





000
SAUS46 KLOX 201549
MTRSDB
METAR KSDB 201548Z AUTO 20004KT 10SM CLR 18/02 A3006 RMK AO2 SLP133
T01780017





000
SAUS46 KLOX 201548
MTRCQT
METAR KCQT 201547Z AUTO 00000KT 8SM OVC016 19/16 A2993 RMK AO2
SLP135 T01940156





000
SAUS46 KLOX 201536
MTRMWS
METAR KMWS 201530Z 23500G00KT MM/03 RMK SNOW DEPTH 3.00





000
SAUS46 KLOX 201515
MTRMWS
METAR KMWS 201500Z 18504G04KT 17/02 RMK SNOW DEPTH 3.00





000
SAUS46 KLOX 201458
MTR9L2
METAR K9L2 201455Z AUTO 30003KT 10SM CLR 12/02 A2994 RMK AO2 SLP131
T01170022 53010 TSNO $





000
SAUS46 KLOX 201454
MTRMWS
METAR KMWS 201445Z 20003G04KT 15/01 RMK SNOW DEPTH 3.00





000
SAUS46 KLOX 201454
MTRLAX
METAR KLAX 201453Z 00000KT 9SM OVC015 19/17 A2992 RMK AO2 SLP129
T01940167 52009





000
SAUS46 KLOX 201452
MTRSMX
METAR KSMX 201451Z 04003KT 10SM OVC012 17/13 A2995 RMK AO2 SLP144
T01670128 53006





000
SAUS46 KLOX 201449
MTRSDB
METAR KSDB 201448Z AUTO 24005KT 10SM CLR 16/02 A3004 RMK AO2 SLP126
T01610017 53005





000
SAUS46 KLOX 201448
MTRCQT
METAR KCQT 201447Z AUTO 00000KT 9SM OVC015 19/16 A2991 RMK AO2
SLP126 T01940156 51009





000
SAUS46 KLOX 201441
MTRCQT
SPECI KCQT 201440Z AUTO 00000KT 9SM OVC015 19/16 A2991 RMK AO2
T01940156





000
SAUS46 KLOX 201436
MTRMWS
METAR KMWS 201430Z 23500G00KT MM/01 RMK SNOW DEPTH 3.00





000
SAUS46 KLOX 201415
MTRMWS
METAR KMWS 201400Z 22003G03KT 13/01 RMK SNOW DEPTH 3.00





000
SAUS46 KLOX 201359
MTR9L2
METAR K9L2 201355Z AUTO 00000KT 10SM CLR 08/01 A2992 RMK AO2 SLP128
T00830006 TSNO $





000
SAUS46 KLOX 201354
MTRMWS
METAR KMWS 201345Z 21501G01KT 13/02 RMK SNOW DEPTH 3.00





000
SAUS46 KLOX 201354
MTRLAX
METAR KLAX 201353Z 09004KT 10SM OVC015 19/17 A2990 RMK AO2 SLP125
T01890167





000
SAUS46 KLOX 201353
MTRSMX
METAR KSMX 201351Z 08007KT 10SM OVC013 17/13 A2994 RMK AO2 SLP138
T01670128





000
SAUS46 KLOX 201349
MTRSDB
METAR KSDB 201348Z AUTO 25006KT 10SM CLR 16/01 A3003 RMK AO2 SLP125
T01560011





000
SAUS46 KLOX 201348
MTRCQT
METAR KCQT 201347Z AUTO 00000KT 10SM OVC014 19/16 A2990 RMK AO2
SLP124 T01890156





000
SAUS46 KLOX 201336
MTRMWS
METAR KMWS 201330Z 23500G00KT MM/03 RMK SNOW DEPTH 3.00





000
SAUS46 KLOX 201315
MTRMWS
METAR KMWS 201300Z 22003G03KT 14/02 RMK SNOW DEPTH 3.00





000
SAUS46 KLOX 201258
MTR9L2
METAR K9L2 201255Z AUTO 00000KT 10SM CLR 09/01 A2992 RMK AO2 SLP121
T00890006 TSNO $





000
SAUS46 KLOX 201254
MTRMWS
METAR KMWS 201245Z 23503G04KT 13/01 RMK SNOW DEPTH 3.00





000
SAUS46 KLOX 201254
MTRLAX
METAR KLAX 201253Z 28004KT 10SM BKN015 19/17 A2990 RMK AO2 SLP123
T01890167





000
SAUS46 KLOX 201253
MTRSMX
METAR KSMX 201251Z 04003KT 10SM OVC014 17/13 A2994 RMK AO2 SLP140
T01720128





000
SAUS46 KLOX 201249
MTRCQT
METAR KCQT 201247Z AUTO 00000KT 10SM OVC014 18/16 A2989 RMK AO2
SLP121 T01780156





000
SAUS46 KLOX 201249
MTRSDB
METAR KSDB 201248Z AUTO 24006KT 10SM CLR 16/01 A3002 RMK AO2 SLP118
T01610011





000
SAUS46 KLOX 201236
MTRMWS
METAR KMWS 201230Z 23500G00KT MM/01 RMK SNOW DEPTH 3.00





000
SAUS46 KLOX 201215
MTRMWS
METAR KMWS 201200Z 25503G04KT 13/00 RMK SNOW DEPTH 3.00





000
SAUS46 KLOX 201202
MTRCQT
SPECI KCQT 201200Z AUTO 00000KT 9SM BKN011 17/15 A2988 RMK AO2
T01720150





000
SAUS46 KLOX 201157
MTR9L2
METAR K9L2 201155Z AUTO 00000KT 10SM CLR 10/01 A2990 RMK AO2 SLP115
T01000011 10167 20100 55001 TSNO $





000
SAUS46 KLOX 201154
MTRMWS
METAR KMWS 201145Z 25004G05KT 14/01 RMK SNOW DEPTH 3.00





000
SAUS46 KLOX 201154
MTRLAX
METAR KLAX 201153Z 26003KT 10SM OVC015 19/17 A2989 RMK AO2 SLP119
T01890167 10194 20183 55002





000
SAUS46 KLOX 201153
MTRSMX
METAR KSMX 201151Z AUTO 9SM OVC013 17/13 A2994 RMK AO2 SLP138
T01720133 10172 20161 53002





000
SAUS46 KLOX 201149
MTRSDB
METAR KSDB 201148Z AUTO 25007KT 10SM CLR 17/02 A3002 RMK AO2 SLP112
T01670017 10183 20161 55003





000
SAUS46 KLOX 201148
MTRCQT
METAR KCQT 201147Z AUTO 00000KT 10SM FEW011 17/15 A2988 RMK AO2
SLP117 T01720150 10200 20172 55002





000
SAUS46 KLOX 201136
MTRMWS
METAR KMWS 201130Z 23500G00KT MM/00 RMK SNOW DEPTH 3.00





000
SAUS46 KLOX 201115
MTRMWS
METAR KMWS 201100Z 25505G06KT 15/03 RMK SNOW DEPTH 3.00





000
SAUS46 KLOX 201057
MTR9L2
METAR K9L2 201055Z AUTO 00000KT 10SM CLR 11/01 A2990 RMK AO2 SLP114
T01060011 TSNO $





000
SAUS46 KLOX 201055
MTRLAX
METAR KLAX 201053Z 25003KT 10SM BKN015 19/17 A2988 RMK AO2 SLP116
T01890167





000
SAUS46 KLOX 201055
MTRLAX
METAR KLAX 201053Z 25003KT 10SM BKN015 19/17 A2988 RMK AO2 SLP116
T01890167





000
SAUS46 KLOX 201054
MTRMWS
METAR KMWS 201045Z 24506G06KT 14/01 RMK SNOW DEPTH 3.00





000
SAUS46 KLOX 201054
MTRMWS
METAR KMWS 201045Z 24506G06KT 14/01 RMK SNOW DEPTH 3.00





000
SAUS46 KLOX 201052
MTRSMX
METAR KSMX 201051Z AUTO 00000KT 9SM OVC012 17/14 A2993 RMK AO2
SLP134 T01720139





000
SAUS46 KLOX 201050
MTRLAX
SPECI KLAX 201049Z 26003KT 10SM BKN015 18/17 A2988 RMK AO2





000
SAUS46 KLOX 201049
MTRSDB
METAR KSDB 201048Z AUTO 25007KT 10SM CLR 17/01 A3002 RMK AO2 SLP111
T01670011





000
SAUS46 KLOX 201048
MTRCQT
METAR KCQT 201047Z AUTO 00000KT 9SM CLR 18/16 A2988 RMK AO2 SLP115
T01780156





000
SAUS46 KLOX 201036
MTRMWS
METAR KMWS 201030Z 23500G00KT MM/02 RMK SNOW DEPTH 3.00





000
SAUS46 KLOX 201016
MTRSMX
SPECI KSMX 201015Z AUTO 00000KT 7SM OVC010 17/14 A2993 RMK AO2
T01720139





000
SAUS46 KLOX 201016
MTRSMX
SPECI KSMX 201015Z AUTO 00000KT 7SM OVC010 17/14 A2993 RMK AO2
T01720139





000
SAUS46 KLOX 201015
MTRMWS
METAR KMWS 201000Z 22004G05KT 15/03 RMK SNOW DEPTH 3.00





000
SAUS46 KLOX 201015
MTRMWS
METAR KMWS 201000Z 22004G05KT 15/03 RMK SNOW DEPTH 3.00





000
SAUS46 KLOX 200958
MTR9L2
METAR K9L2 200955Z AUTO 35003KT 10SM CLR 11/01 A2991 RMK AO2 SLP115
T01060011 TSNO $





000
SAUS46 KLOX 200958
MTR9L2
METAR K9L2 200955Z AUTO 35003KT 10SM CLR 11/01 A2991 RMK AO2 SLP115
T01060011 TSNO $





000
SAUS46 KLOX 200954
MTRMWS
METAR KMWS 200945Z 24504G04KT 13/02 RMK SNOW DEPTH 3.00





000
SAUS46 KLOX 200954
MTRLAX
METAR KLAX 200953Z 00000KT 10SM FEW013 18/17 A2989 RMK AO2 SLP119
T01830167





000
SAUS46 KLOX 200954
MTRMWS
METAR KMWS 200945Z 24504G04KT 13/02 RMK SNOW DEPTH 3.00





000
SAUS46 KLOX 200954
MTRLAX
METAR KLAX 200953Z 00000KT 10SM FEW013 18/17 A2989 RMK AO2 SLP119
T01830167





000
SAUS46 KLOX 200952
MTRSMX
METAR KSMX 200951Z AUTO 26004KT 8SM OVC007 17/14 A2993 RMK AO2 CIG
007V010 SLP136 T01670139





000
SAUS46 KLOX 200952
MTRSMX
METAR KSMX 200951Z AUTO 26004KT 8SM OVC007 17/14 A2993 RMK AO2 CIG
007V010 SLP136 T01670139





000
SAUS46 KLOX 200949
MTRSDB
METAR KSDB 200948Z AUTO 27007KT 10SM CLR 17/01 A3003 RMK AO2 SLP115
T01670011





000
SAUS46 KLOX 200949
MTRSDB
METAR KSDB 200948Z AUTO 27007KT 10SM CLR 17/01 A3003 RMK AO2 SLP115
T01670011





000
SAUS46 KLOX 200948
MTRCQT
METAR KCQT 200947Z AUTO 00000KT 10SM CLR 18/16 A2988 RMK AO2 SLP116
T01830161





000
SAUS46 KLOX 200948
MTRCQT
METAR KCQT 200947Z AUTO 00000KT 10SM CLR 18/16 A2988 RMK AO2 SLP116
T01830161





000
SAUS46 KLOX 200936
MTRMWS
METAR KMWS 200930Z 23500G00KT MM/01 RMK SNOW DEPTH 3.00





000
SAUS46 KLOX 200915
MTRMWS
METAR KMWS 200900Z 24505G05KT 14/02 RMK SNOW DEPTH 3.00





000
SAUS46 KLOX 200858
MTR9L2
METAR K9L2 200855Z AUTO 00000KT 10SM CLR 12/02 A2991 RMK AO2 SLP116
T01170017 53001 TSNO $





000
SAUS46 KLOX 200854
MTRMWS
METAR KMWS 200845Z 24505G05KT 15/02 RMK SNOW DEPTH 3.00





000
SAUS46 KLOX 200854
MTRLAX
METAR KLAX 200853Z 24003KT 10SM FEW013 19/17 A2989 RMK AO2 SLP120
T01890167 55001





000
SAUS46 KLOX 200852
MTRSMX
METAR KSMX 200851Z AUTO 33003KT 7SM OVC009 17/14 A2993 RMK AO2
SLP135 T01670139 55000





000
SAUS46 KLOX 200849
MTRCQT
METAR KCQT 200847Z AUTO 00000KT 10SM SCT013 19/16 A2989 RMK AO2
SLP118 T01890161 55000





000
SAUS46 KLOX 200849
MTRSDB
METAR KSDB 200848Z AUTO 24006KT 10SM CLR 17/01 A3003 RMK AO2 SLP114
T01720006 58002





000
SAUS46 KLOX 200836
MTRMWS
METAR KMWS 200830Z 23500G00KT MM/02 RMK SNOW DEPTH 3.00





000
SAUS46 KLOX 200823
MTRCQT
SPECI KCQT 200822Z AUTO 00000KT 10SM BKN014 19/16 A2989 RMK AO2
T01890161





000
SAUS46 KLOX 200815
MTRMWS
METAR KMWS 200800Z 20003G03KT 15/03 RMK SNOW DEPTH 3.00





000
SAUS46 KLOX 200809
MTRLAX
METAR KLAX 200753Z COR 25006KT 10SM FEW014 19/17 A2989 RMK AO2
SLP119 T01890167 402280156





000
SAUS46 KLOX 200809
MTRLAX
METAR KLAX 200753Z COR 25006KT 10SM FEW014 19/17 A2989 RMK AO2
SLP119 T01890167 402280156





000
SAUS46 KLOX 200757
MTR9L2
METAR K9L2 200755Z AUTO 00000KT 10SM CLR 13/03 A2990 RMK AO2 SLP114
T01330028 402940078 TSNO $





000
SAUS46 KLOX 200754
MTRMWS
METAR KMWS 200745Z 20003G03KT 15/02 RMK SNOW DEPTH 3.00





000
SAUS46 KLOX 200754
MTRLAX
METAR KLAX 200753Z 25006KT 10SM CLR 19/17 A2989 RMK AO2 CIG 014
RWY24 SLP119 T01890167 402280156





000
SAUS46 KLOX 200754
MTRMWS
METAR KMWS 200745Z 20003G03KT 15/02 RMK SNOW DEPTH 3.00





000
SAUS46 KLOX 200754
MTRLAX
METAR KLAX 200753Z 25006KT 10SM CLR 19/17 A2989 RMK AO2 CIG 014
RWY24 SLP119 T01890167 402280156





000
SAUS46 KLOX 200753
MTRSMX
METAR KSMX 200751Z AUTO 00000KT 6SM HZ OVC008 17/14 A2992 RMK AO2
SLP133 T01670139 402560117





000
SAUS46 KLOX 200753
MTRSMX
METAR KSMX 200751Z AUTO 00000KT 6SM HZ OVC008 17/14 A2992 RMK AO2
SLP133 T01670139 402560117





000
SAUS46 KLOX 200749
MTRSDB
METAR KSDB 200748Z AUTO 27007KT 10SM CLR 17/01 A3003 RMK AO2 SLP115
T01720006 402720172





000
SAUS46 KLOX 200749
MTRSDB
METAR KSDB 200748Z AUTO 27007KT 10SM CLR 17/01 A3003 RMK AO2 SLP115
T01720006 402720172





000
SAUS46 KLOX 200748
MTRCQT
METAR KCQT 200747Z AUTO 00000KT 10SM CLR 19/16 A2988 RMK AO2 SLP117
T01890161 402500167





000
SAUS46 KLOX 200748
MTRCQT
METAR KCQT 200747Z AUTO 00000KT 10SM CLR 19/16 A2988 RMK AO2 SLP117
T01890161 402500167





000
SAUS46 KLOX 200736
MTRMWS
METAR KMWS 200730Z 23500G00KT MM/02 RMK SNOW DEPTH 3.00





000
SAUS46 KLOX 200736
MTRLAX
SPECI KLAX 200735Z 25006KT 10SM FEW017 19/17 A2989 RMK AO2





000
SAUS46 KLOX 200736
MTRMWS
METAR KMWS 200730Z 23500G00KT MM/02 RMK SNOW DEPTH 3.00





000
SAUS46 KLOX 200736
MTRLAX
SPECI KLAX 200735Z 25006KT 10SM FEW017 19/17 A2989 RMK AO2





000
SAUS46 KLOX 200715
MTRMWS
METAR KMWS 200700Z 17502G02KT 14/01 RMK SNOW DEPTH 3.00





000
SAUS46 KLOX 200659
MTR9L2
METAR K9L2 200655Z AUTO 00000KT 10SM CLR 13/03 A2990 RMK AO2 SLP115
T01330028 TSNO $





000
SAUS46 KLOX 200654
MTRMWS
METAR KMWS 200645Z 20001G01KT 13/01 RMK SNOW DEPTH 3.00





000
SAUS46 KLOX 200654
MTRLAX
METAR KLAX 200653Z 27007KT 10SM BKN015 19/17 A2989 RMK AO2 SLP119
T01940167





000
SAUS46 KLOX 200653
MTRSMX
METAR KSMX 200651Z AUTO 34003KT 8SM OVC009 17/14 A2992 RMK AO2
SLP132 T01670139





000
SAUS46 KLOX 200652
MTRCQT
SPECI KCQT 200651Z AUTO 27003KT 10SM SCT014 19/16 A2988 RMK AO2
T01940161





000
SAUS46 KLOX 200649
MTRSDB
METAR KSDB 200648Z AUTO 27008KT 10SM CLR 18/01 A3004 RMK AO2 SLP116
T01780006





000
SAUS46 KLOX 200648
MTRCQT
METAR KCQT 200647Z AUTO 00000KT 10SM BKN014 20/16 A2988 RMK AO2
SLP117 T02000161





000
SAUS46 KLOX 200636
MTRSMX
SPECI KSMX 200635Z AUTO 36004KT 9SM OVC009 17/14 A2993 RMK AO2
T01720139





000
SAUS46 KLOX 200636
MTRMWS
METAR KMWS 200630Z 23500G00KT MM/02 RMK SNOW DEPTH 3.00





000
SAUS46 KLOX 200615
MTRMWS
METAR KMWS 200600Z 25502G02KT 15/02 RMK SNOW DEPTH 3.00





000
SAUS46 KLOX 200559
MTR9L2
METAR K9L2 200555Z AUTO 00000KT 10SM CLR 16/05 A2991 RMK AO2 SLP118
T01610050 10289 20161 51013 $





000
SAUS46 KLOX 200554
MTRLAX
METAR KLAX 200553Z 27008KT 10SM OVC015 19/17 A2990 RMK AO2 SLP121
T01940172 10211 20194 51012





000
SAUS46 KLOX 200554
MTRMWS
METAR KMWS 200545Z 21503G04KT 16/03 RMK SNOW DEPTH 3.00





000
SAUS46 KLOX 200552
MTRSMX
METAR KSMX 200551Z AUTO 00000KT 5SM BR FEW003 BKN012 16/14 A2993 RMK
AO2 SLP135 T01610139 10194 20150 51008





000
SAUS46 KLOX 200549
MTRSDB
METAR KSDB 200548Z AUTO 28010KT 10SM CLR 18/01 A3004 RMK AO2 SLP116
T01830006 10239 20172 51003





000
SAUS46 KLOX 200548
MTRCQT
METAR KCQT 200547Z AUTO 00000KT 10SM OVC012 20/17 A2989 RMK AO2
SLP119 T02000167 10233 20200 53011





000
SAUS46 KLOX 200536
MTRMWS
METAR KMWS 200530Z 23500G00KT MM/02 RMK SNOW DEPTH 3.00





000
SAUS46 KLOX 200523
MTRSMX
SPECI KSMX 200522Z AUTO 29003KT 6SM BR FEW004 16/14 A2993 RMK AO2
T01610139





000
SAUS46 KLOX 200515
MTRMWS
METAR KMWS 200500Z 20002G03KT 16/02 RMK SNOW DEPTH 3.00





000
SAUS46 KLOX 200509
MTRSMX
SPECI KSMX 200508Z AUTO 00000KT 8SM SCT005 BKN011 17/14 A2992 RMK
AO2 T01670144





000
SAUS46 KLOX 200458
MTR9L2
METAR K9L2 200455Z AUTO 17006KT 10SM CLR 19/07 A2990 RMK AO2 SLP115
T01890067 TSNO $





000
SAUS46 KLOX 200454
MTRMWS
METAR KMWS 200445Z 20502G02KT 16/02 RMK SNOW DEPTH 3.00





000
SAUS46 KLOX 200454
MTRLAX
METAR KLAX 200453Z 26006KT 10SM BKN013 19/17 A2989 RMK AO2 SLP119
T01940172





000
SAUS46 KLOX 200453
MTRSMX
METAR KSMX 200451Z AUTO 29003KT 9SM OVC011 18/15 A2992 RMK AO2 CIG
006V011 SLP133 T01780150





000
SAUS46 KLOX 200449
MTRSDB
METAR KSDB 200448Z AUTO 29010KT 10SM CLR 18/01 A3004 RMK AO2 SLP118
T01830011





000
SAUS46 KLOX 200448
MTRCQT
METAR KCQT 200447Z AUTO 00000KT 10SM OVC010 20/17 A2988 RMK AO2
SLP115 T02000167





000
SAUS46 KLOX 200436
MTRMWS
METAR KMWS 200430Z 23500G00KT MM/01 RMK SNOW DEPTH 3.00





000
SAUS46 KLOX 200415
MTRMWS
METAR KMWS 200400Z 24004G04KT 16/02 RMK SNOW DEPTH 3.00





000
SAUS46 KLOX 200401
MTRSMX
SPECI KSMX 200400Z AUTO 29009KT 10SM BKN007 OVC011 19/16 A2992 RMK
AO2 CIG 006V010 T01890156





000
SAUS46 KLOX 200359
MTR9L2
METAR K9L2 200355Z AUTO 23004KT 10SM CLR 21/07 A2988 RMK AO2 SLP112
T02110067 $





000
SAUS46 KLOX 200354
MTRMWS
METAR KMWS 200345Z 22003G04KT 16/02 RMK SNOW DEPTH 3.00





000
SAUS46 KLOX 200354
MTRLAX
METAR KLAX 200353Z 25008KT 10SM BKN011 19/17 A2987 RMK AO2 SLP113
T01940172





000
SAUS46 KLOX 200352
MTRSMX
METAR KSMX 200351Z AUTO 29008KT 10SM OVC010 19/16 A2992 RMK AO2 CIG
006V013 SLP131 T01890156





000
SAUS46 KLOX 200349
MTRSDB
METAR KSDB 200348Z AUTO 33010G18KT 300V010 10SM CLR 18/02 A3003 RMK
AO2 SLP119 T01780017





000
SAUS46 KLOX 200348
MTRCQT
METAR KCQT 200347Z AUTO 00000KT 10SM OVC011 20/17 A2986 RMK AO2
SLP111 T02000167





000
SAUS46 KLOX 200336
MTRMWS
METAR KMWS 200330Z 23500G00KT MM/02 RMK SNOW DEPTH 3.00





000
SAUS46 KLOX 200330
MTRSMX
SPECI KSMX 200329Z AUTO 29007KT 10SM OVC011 19/16 A2991 RMK AO2 CIG
008V014 T01890156





000
SAUS46 KLOX 200327
MTRCQT
SPECI KCQT 200326Z AUTO 00000KT 10SM BKN011 20/17 A2986 RMK AO2
T02000167





000
SAUS46 KLOX 200315
MTRMWS
METAR KMWS 200300Z 21501G01KT 15/01 RMK SNOW DEPTH 3.00





000
SAUS46 KLOX 200257
MTR9L2
METAR K9L2 200255Z AUTO 27007KT 10SM CLR 21/06 A2987 RMK AO2 SLP108
T02110056 53008 TSNO $





000
SAUS46 KLOX 200254
MTRMWS
METAR KMWS 200245Z 21501G02KT 15/01 RMK SNOW DEPTH 3.00





000
SAUS46 KLOX 200254
MTRLAX
METAR KLAX 200253Z 27009KT 10SM BKN011 20/18 A2986 RMK AO2 SLP110
T02000178 53006





000
SAUS46 KLOX 200253
MTRSMX
METAR KSMX 200251Z 34007KT 10SM OVC008 19/16 A2991 RMK AO2 SLP128
T01890156 53007





000
SAUS46 KLOX 200249
MTRSDB
METAR KSDB 200248Z AUTO 29009KT 10SM CLR 18/03 A3003 RMK AO2 SLP119
T01830033 53008





000
SAUS46 KLOX 200248
MTRCQT
METAR KCQT 200247Z AUTO 00000KT 10SM CLR 21/16 A2986 RMK AO2 SLP109
T02060161 53009





000
SAUS46 KLOX 200236
MTRMWS
METAR KMWS 200230Z 23500G00KT MM/02 RMK SNOW DEPTH 3.00





000
SAUS46 KLOX 200215
MTRMWS
METAR KMWS 200200Z 29501G01KT 15/03 RMK SNOW DEPTH 3.00





000
SAUS46 KLOX 200159
MTR9L2
METAR K9L2 200155Z AUTO 24005KT 10SM CLR 23/01 A2986 RMK AO2 SLP104
T02280011 TSNO $





000
SAUS46 KLOX 200155
MTRLAX
METAR KLAX 200153Z 27011KT 10SM FEW015 20/17 A2985 RMK AO2 SLP107
T02000167





000
SAUS46 KLOX 200154
MTRMWS
METAR KMWS 200145Z 33001G02KT 16/04 RMK SNOW DEPTH 3.00





000
SAUS46 KLOX 200152
MTRSMX
METAR KSMX 200151Z 31005KT 8SM BKN008 18/15 A2989 RMK AO2 SLP124
T01830150





000
SAUS46 KLOX 200149
MTRSDB
METAR KSDB 200148Z AUTO 21006KT 10SM CLR 18/07 A3001 RMK AO2 SLP117
T01780072





000
SAUS46 KLOX 200149
MTRCQT
METAR KCQT 200147Z AUTO VRB03KT 10SM CLR 21/16 A2984 RMK AO2 SLP103
T02110156





000
SAUS46 KLOX 200136
MTRMWS
METAR KMWS 200130Z 23500G00KT MM/04 RMK SNOW DEPTH 3.00





000
SAUS46 KLOX 200115
MTRMWS
METAR KMWS 200100Z 07501G01KT 18/06 RMK SNOW DEPTH 3.00





000
SAUS46 KLOX 200059
MTR9L2
METAR K9L2 200055Z AUTO 21003KT 10SM CLR 27/02 A2985 RMK AO2 SLP097
T02720022 $





000
SAUS46 KLOX 200054
MTRLAX
METAR KLAX 200053Z 28011KT 10SM FEW015 21/17 A2984 RMK AO2 SLP103
T02060167





000
SAUS46 KLOX 200054
MTRMWS
METAR KMWS 200045Z 36001G02KT 20/06 RMK SNOW DEPTH 3.00





000
SAUS46 KLOX 200053
MTRSMX
METAR KSMX 200051Z 28006KT 8SM BKN010 19/15 A2989 RMK AO2 SLP121
T01940150





000
SAUS46 KLOX 200049
MTRCQT
METAR KCQT 200047Z AUTO VRB03KT 10SM CLR 22/16 A2983 RMK AO2 SLP100
T02170156





000
SAUS46 KLOX 200049
MTRSDB
METAR KSDB 200048Z AUTO 20007KT 10SM CLR 21/07 A3000 RMK AO2 SLP108
T02110067





000
SAUS46 KLOX 200036
MTRMWS
METAR KMWS 200030Z 23500G00KT MM/05 RMK SNOW DEPTH 3.00





000
SAUS46 KLOX 200015
MTRMWS
METAR KMWS 200000Z 22504G07KT 21/07 RMK SNOW DEPTH 4.00





000
SAUS46 KLOX 192358
MTR9L2
METAR K9L2 192355Z AUTO 22004KT 10SM CLR 29/02 A2984 RMK AO2 SLP094
T02890022 10294 20194 56012 $





000
SAUS46 KLOX 192358
MTR9L2
METAR K9L2 192355Z AUTO 22004KT 10SM CLR 29/02 A2984 RMK AO2 SLP094
T02890022 10294 20194 56012 $





000
SAUS46 KLOX 192354
MTRMWS
METAR KMWS 192345Z 22505G07KT 22/07 RMK SNOW DEPTH 4.00





000
SAUS46 KLOX 192354
MTRLAX
METAR KLAX 192353Z 26011KT 10SM SCT015 21/17 A2984 RMK AO2 SLP104
T02110172 10228 20211 56011





000
SAUS46 KLOX 192354
MTRMWS
METAR KMWS 192345Z 22505G07KT 22/07 RMK SNOW DEPTH 4.00





000
SAUS46 KLOX 192354
MTRLAX
METAR KLAX 192353Z 26011KT 10SM SCT015 21/17 A2984 RMK AO2 SLP104
T02110172 10228 20211 56011





000
SAUS46 KLOX 192352
MTRSMX
METAR KSMX 192351Z 30010KT 10SM BKN010 20/15 A2988 RMK AO2 SLP121
T02000150 10256 20200 56000





000
SAUS46 KLOX 192352
MTRSMX
METAR KSMX 192351Z 30010KT 10SM BKN010 20/15 A2988 RMK AO2 SLP121
T02000150 10256 20200 56000





000
SAUS46 KLOX 192349
MTRSDB
METAR KSDB 192348Z AUTO 19008KT 10SM CLR 24/04 A3000 RMK AO2 SLP105
T02390044 10272 20239 56005





000
SAUS46 KLOX 192349
MTRSDB
METAR KSDB 192348Z AUTO 19008KT 10SM CLR 24/04 A3000 RMK AO2 SLP105
T02390044 10272 20239 56005





000
SAUS46 KLOX 192348
MTRCQT
METAR KCQT 192347Z AUTO 27004KT 10SM CLR 23/16 A2983 RMK AO2 SLP100
T02280156 10250 20228 56010





000
SAUS46 KLOX 192348
MTRCQT
METAR KCQT 192347Z AUTO 27004KT 10SM CLR 23/16 A2983 RMK AO2 SLP100
T02280156 10250 20228 56010





000
SAUS46 KLOX 192336
MTRMWS
METAR KMWS 192330Z 23500G00KT MM/06 RMK SNOW DEPTH 4.00





000
SAUS46 KLOX 192336
MTRMWS
METAR KMWS 192330Z 23500G00KT MM/06 RMK SNOW DEPTH 4.00





000
SAUS46 KLOX 192315
MTRMWS
METAR KMWS 192300Z 23007G09KT 22/11 RMK SNOW DEPTH 4.00





000
SAUS46 KLOX 192315
MTRMWS
METAR KMWS 192300Z 23007G09KT 22/11 RMK SNOW DEPTH 4.00





000
SAUS46 KLOX 192259
MTR9L2
METAR K9L2 192255Z AUTO 19005KT 10SM CLR 29/02 A2985 RMK AO2 SLP097
T02890022 $





000
SAUS46 KLOX 192259
MTR9L2
METAR K9L2 192255Z AUTO 19005KT 10SM CLR 29/02 A2985 RMK AO2 SLP097
T02890022 $





000
SAUS46 KLOX 192254
MTRMWS
METAR KMWS 192245Z 23506G07KT 22/07 RMK SNOW DEPTH 4.00





000
SAUS46 KLOX 192254
MTRLAX
METAR KLAX 192253Z 25009KT 10SM FEW029 22/16 A2985 RMK AO2 SLP106
T02220161





000
SAUS46 KLOX 192254
MTRLAX
METAR KLAX 192253Z 25009KT 10SM FEW029 22/16 A2985 RMK AO2 SLP106
T02220161





000
SAUS46 KLOX 192254
MTRMWS
METAR KMWS 192245Z 23506G07KT 22/07 RMK SNOW DEPTH 4.00





000
SAUS46 KLOX 192252
MTRSMX
METAR KSMX 192251Z 32014KT 10SM CLR 22/15 A2989 RMK AO2 SLP122
T02220150





000
SAUS46 KLOX 192252
MTRSMX
METAR KSMX 192251Z 32014KT 10SM CLR 22/15 A2989 RMK AO2 SLP122
T02220150





000
SAUS46 KLOX 192249
MTRSDB
METAR KSDB 192248Z AUTO 18011KT 10SM CLR 25/04 A3000 RMK AO2 SLP103
T02500039





000
SAUS46 KLOX 192249
MTRCQT
METAR KCQT 192247Z AUTO VRB04KT 10SM CLR 23/16 A2984 RMK AO2 SLP101
T02330156





000
SAUS46 KLOX 192249
MTRSDB
METAR KSDB 192248Z AUTO 18011KT 10SM CLR 25/04 A3000 RMK AO2 SLP103
T02500039





000
SAUS46 KLOX 192249
MTRCQT
METAR KCQT 192247Z AUTO VRB04KT 10SM CLR 23/16 A2984 RMK AO2 SLP101
T02330156





000
SAUS46 KLOX 192236
MTRMWS
METAR KMWS 192230Z 23500G00KT MM/09 RMK SNOW DEPTH 5.00





000
SAUS46 KLOX 192215
MTRMWS
METAR KMWS 192200Z 22508G10KT 21/10 RMK SNOW DEPTH 5.00





000
SAUS46 KLOX 192159
MTR9L2
METAR K9L2 192155Z AUTO 00000KT 10SM CLR 29/02 A2986 RMK AO2 SLP099
T02890017 TSNO $





000
SAUS46 KLOX 192154
MTRLAX
METAR KLAX 192153Z 27011KT 10SM FEW030 22/16 A2986 RMK AO2 SLP111
T02170161





000
SAUS46 KLOX 192154
MTRMWS
METAR KMWS 192145Z 21507G10KT 22/05 RMK SNOW DEPTH 4.00





000
SAUS46 KLOX 192154
MTRLAX
METAR KLAX 192153Z 27011KT 10SM FEW030 22/16 A2986 RMK AO2 SLP111
T02170161





000
SAUS46 KLOX 192154
MTRMWS
METAR KMWS 192145Z 21507G10KT 22/05 RMK SNOW DEPTH 4.00





000
SAUS46 KLOX 192153
MTRSMX
METAR KSMX 192151Z AUTO 32014KT 10SM CLR 24/14 A2988 RMK AO2 SLP118
T02440144





000
SAUS46 KLOX 192149
MTRSDB
METAR KSDB 192148Z AUTO 18008KT 10SM CLR 26/03 A3001 RMK AO2 SLP105
T02560028





000
SAUS46 KLOX 192149
MTRCQT
METAR KCQT 192147Z AUTO VRB05KT 10SM CLR 24/15 A2985 RMK AO2 SLP104
T02390150





000
SAUS46 KLOX 192136
MTRMWS
METAR KMWS 192130Z 23500G00KT MM/09 RMK SNOW DEPTH 4.00





000
SAUS46 KLOX 192115
MTRMWS
METAR KMWS 192100Z 23007G10KT 22/08 RMK SNOW DEPTH 4.00





000
SAUS46 KLOX 192058
MTR9L2
METAR K9L2 192055Z AUTO 00000KT 10SM CLR 28/02 A2988 RMK AO2 SLP107
T02780017 58021 $





000
SAUS46 KLOX 192054
MTRLAX
METAR KLAX 192053Z 27011KT 10SM FEW025 22/16 A2987 RMK AO2 SLP115
T02220161 58015





000
SAUS46 KLOX 192054
MTRMWS
METAR KMWS 192045Z 21005G07KT 22/08 RMK SNOW DEPTH 4.00





000
SAUS46 KLOX 192053
MTRSMX
METAR KSMX 192051Z 33009KT 10SM CLR 24/14 A2989 RMK AO2 SLP120
T02440144 58013





000
SAUS46 KLOX 192049
MTRSDB
METAR KSDB 192048Z AUTO 17009KT 130V200 10SM CLR 26/03 A3002 RMK AO2
SLP108 T02610028 58011





000
SAUS46 KLOX 192049
MTRCQT
METAR KCQT 192047Z AUTO 00000KT 10SM FEW027 24/16 A2986 RMK AO2
SLP109 T02390156 58017





000
SAUS46 KLOX 192036
MTRMWS
METAR KMWS 192030Z 23500G00KT MM/09 RMK SNOW DEPTH 4.00





000
SAUS46 KLOX 192015
MTRMWS
METAR KMWS 192000Z 22006G09KT 23/08 RMK SNOW DEPTH 5.00





000
SAUS46 KLOX 192013
MTRCQT
SPECI KCQT 192012Z AUTO 00000KT 10SM SCT027 24/16 A2987 RMK AO2
T02440156





000
SAUS46 KLOX 192001
MTRCQT
SPECI KCQT 192001Z AUTO VRB03KT 10SM BKN029 24/16 A2988 RMK AO2
T02440156





000
SAUS46 KLOX 191958
MTR9L2
METAR K9L2 191955Z AUTO VRB03KT 10SM CLR 27/02 A2990 RMK AO2 SLP116
T02670017 $





000
SAUS46 KLOX 191954
MTRLAX
METAR KLAX 191953Z 25011G17KT 10SM FEW023 22/17 A2990 RMK AO2 SLP122
T02220167





000
SAUS46 KLOX 191954
MTRMWS
METAR KMWS 191945Z 21506G08KT 23/07 RMK SNOW DEPTH 4.00





000
SAUS46 KLOX 191952
MTRSMX
METAR KSMX 191951Z 30011KT 10SM CLR 25/13 A2991 RMK AO2 SLP126
T02500133





000
SAUS46 KLOX 191949
MTRSDB
METAR KSDB 191948Z AUTO VRB04KT 10SM CLR 26/02 A3004 RMK AO2 SLP114
T02610017





000
SAUS46 KLOX 191948
MTRCQT
METAR KCQT 191947Z AUTO VRB04KT 10SM BKN030 24/16 A2988 RMK AO2
SLP116 T02440161





000
SAUS46 KLOX 191937
MTRCQT
SPECI KCQT 191936Z AUTO VRB03KT 10SM BKN029 24/16 A2988 RMK AO2
T02440161





000
SAUS46 KLOX 191936
MTRMWS
METAR KMWS 191930Z 23500G00KT MM/06 RMK SNOW DEPTH 4.00





000
SAUS46 KLOX 191915
MTRMWS
METAR KMWS 191900Z 23006G08KT 22/04 RMK SNOW DEPTH 4.00





000
SAUS46 KLOX 191857
MTR9L2
METAR K9L2 191855Z AUTO 00000KT 10SM CLR 23/02 A2994 RMK AO2 SLP127
T02330022 $





000
SAUS46 KLOX 191854
MTRMWS
METAR KMWS 191845Z 23506G08KT 23/05 RMK SNOW DEPTH 4.00





000
SAUS46 KLOX 191854
MTRLAX
METAR KLAX 191853Z 24009KT 10SM FEW023 21/16 A2992 RMK AO2 SLP129
T02110161





000
SAUS46 KLOX 191852
MTRSMX
METAR KSMX 191851Z 24005KT 10SM CLR 25/11 A2991 RMK AO2 SLP130
T02500106





000
SAUS46 KLOX 191849
MTRSDB
METAR KSDB 191848Z AUTO 12008KT 10SM CLR 25/02 A3005 RMK AO2 SLP121
T02500017





000
SAUS46 KLOX 191848
MTRCQT
METAR KCQT 191847Z AUTO 00000KT 10SM CLR 24/14 A2990 RMK AO2 SLP122
T02440144





000
SAUS46 KLOX 191836
MTRMWS
METAR KMWS 191830Z 23500G00KT MM/04 RMK SNOW DEPTH 4.00





000
SAUS46 KLOX 191815
MTRMWS
METAR KMWS 191800Z 20504G06KT 21/04 RMK SNOW DEPTH 4.00





000
SAUS46 KLOX 191801 COR
MTR9L2
METAR K9L2 191755Z AUTO 00000KT 10SM CLR 19/02 A2995 RMK AO2 SLP134
T01940017 10194 20078 50002 $





000
SAUS46 KLOX 191754
MTRMWS
METAR KMWS 191745Z 21004G06KT 21/03 RMK SNOW DEPTH 4.00





000
SAUS46 KLOX 191754
MTRLAX
METAR KLAX 191753Z 24003KT 10SM FEW021 22/16 A2992 RMK AO2 SLP129
T02170161 10222 20156 50007





000
SAUS46 KLOX 191752
MTRSMX
METAR KSMX 191751Z 00000KT 10SM CLR 23/12 A2992 RMK AO2 SLP133
T02280117 10228 20117 50011





000
SAUS46 KLOX 191749
MTRSDB
METAR KSDB 191748Z AUTO VRB03KT 10SM CLR 24/01 A3006 RMK AO2 SLP124
T02440006 10250 20172 50008





000
SAUS46 KLOX 191748
MTRCQT
METAR KCQT 191747Z AUTO 00000KT 10SM FEW025 23/14 A2991 RMK AO2
SLP126 T02280144 10228 20167 50006





000
SAUS46 KLOX 191736
MTRMWS
METAR KMWS 191730Z 23500G00KT MM/03 RMK SNOW DEPTH 4.00





000
SAUS46 KLOX 191715
MTRMWS
METAR KMWS 191700Z 22003G05KT 20/03 RMK SNOW DEPTH 3.00





000
SAUS46 KLOX 191659
MTR9L2
METAR K9L2 191655Z AUTO 00000KT 10SM CLR 16/02 A2996 RMK AO2 SLP139
T01560017 $





000
SAUS46 KLOX 191655
MTRLAX
METAR KLAX 191653Z 00000KT 10SM FEW013 21/16 A2992 RMK AO2 SLP132
T02060156





000
SAUS46 KLOX 191654
MTRMWS
METAR KMWS 191645Z 23503G05KT 22/05 RMK SNOW DEPTH 4.00





000
SAUS46 KLOX 191653
MTRSMX
METAR KSMX 191651Z 00000KT 10SM CLR 20/12 A2993 RMK AO2 SLP136
T02000122





000
SAUS46 KLOX 191649
MTRSDB
METAR KSDB 191648Z AUTO VRB04KT 10SM CLR 23/01 A3006 RMK AO2 SLP125
T02280011





000
SAUS46 KLOX 191649
MTRSDB
METAR KSDB 191648Z AUTO VRB04KT 10SM CLR 23/01 A3006 RMK AO2 SLP125
T02280011





000
SAUS46 KLOX 191648
MTRCQT
METAR KCQT 191647Z AUTO 00000KT 10SM CLR 21/14 A2991 RMK AO2 SLP128
T02110144





000
SAUS46 KLOX 191648
MTRCQT
METAR KCQT 191647Z AUTO 00000KT 10SM CLR 21/14 A2991 RMK AO2 SLP128
T02110144





000
SAUS46 KLOX 191636
MTRMWS
METAR KMWS 191630Z 23500G00KT MM/03 RMK SNOW DEPTH 4.00





000
SAUS46 KLOX 191615
MTRMWS
METAR KMWS 191600Z 27500G01KT 21/03 RMK SNOW DEPTH 3.00





000
SAUS46 KLOX 191558
MTR9L2
METAR K9L2 191555Z AUTO 00000KT 10SM CLR 12/01 A2995 RMK AO2 SLP137
T01220006 TSNO $





000
SAUS46 KLOX 191554
MTRMWS
METAR KMWS 191545Z 02001G03KT 20/03 RMK SNOW DEPTH 3.00





000
SAUS46 KLOX 191554
MTRLAX
METAR KLAX 191553Z 12006KT 10SM FEW013 19/15 A2992 RMK AO2 SLP128
T01890150





000
SAUS46 KLOX 191553
MTRSMX
METAR KSMX 191551Z 00000KT 10SM CLR 17/13 A2992 RMK AO2 SLP132
T01670128





000
SAUS46 KLOX 191549
MTRSDB
METAR KSDB 191548Z AUTO VRB05KT 10SM CLR 22/01 A3004 RMK AO2 SLP123
T02170011





000
SAUS46 KLOX 191548
MTRCQT
METAR KCQT 191547Z AUTO 07003KT 10SM FEW013 19/13 A2991 RMK AO2
SLP126 T01940133





000
SAUS46 KLOX 191536
MTRMWS
METAR KMWS 191530Z 23500G00KT MM/01 RMK SNOW DEPTH 3.00





000
SAUS46 KLOX 191515
MTRMWS
METAR KMWS 191500Z 03002G03KT 16/01 RMK SNOW DEPTH 3.00





000
SAUS46 KLOX 191457
MTR9L2
METAR K9L2 191455Z AUTO 00000KT 10SM CLR 10/M01 A2994 RMK AO2 SLP135
T01001006 53016 TSNO $





000
SAUS46 KLOX 191455
MTRLAX
METAR KLAX 191453Z 10004KT 10SM FEW013 17/14 A2990 RMK AO2 SLP123
T01670144 52013





000
SAUS46 KLOX 191454
MTRCQT
SPECI KCQT 191453Z AUTO 00000KT 10SM SCT014 18/13 A2989 RMK AO2
T01830133





000
SAUS46 KLOX 191454
MTRMWS
METAR KMWS 191445Z 02502G02KT 14/01 RMK SNOW DEPTH 3.00





000
SAUS46 KLOX 191453
MTRSMX
METAR KSMX 191451Z 00000KT 8SM CLR 13/11 A2989 RMK AO2 SLP123
T01330106 53007





000
SAUS46 KLOX 191449
MTRSDB
METAR KSDB 191448Z AUTO 00000KT 10SM CLR 19/00 A3003 RMK AO2 SLP121
T01890000 53012





000
SAUS46 KLOX 191448
MTRCQT
METAR KCQT 191447Z AUTO 00000KT 10SM BKN014 18/13 A2989 RMK AO2
SLP120 T01780133 51011





000
SAUS46 KLOX 191436
MTRMWS
METAR KMWS 191430Z 23500G00KT MM/03 RMK SNOW DEPTH 3.00





000
SAUS46 KLOX 191415
MTRMWS
METAR KMWS 191400Z 26004G04KT 13/00 RMK SNOW DEPTH 3.00





000
SAUS46 KLOX 191357
MTR9L2
METAR K9L2 191355Z AUTO 00000KT 10SM CLR 08/M01 A2992 RMK AO2 SLP125
T00781011 TSNO $





000
SAUS46 KLOX 191354
MTRMWS
METAR KMWS 191345Z 24505G05KT 13/M01 RMK SNOW DEPTH 3.00





000
SAUS46 KLOX 191354
MTRLAX
METAR KLAX 191353Z 11003KT 10SM FEW013 16/14 A2989 RMK AO2 SLP120
T01610144





000
SAUS46 KLOX 191352
MTRSMX
METAR KSMX 191351Z 00000KT 10SM CLR 12/10 A2988 RMK AO2 SLP119
T01220100





000
SAUS46 KLOX 191349
MTRSDB
METAR KSDB 191348Z AUTO 35004KT 10SM CLR 18/M01 A3001 RMK AO2 SLP118
T01781006





000
SAUS46 KLOX 191348
MTRCQT
METAR KCQT 191347Z AUTO 00000KT 10SM OVC014 17/13 A2988 RMK AO2
SLP118 T01670133





000
SAUS46 KLOX 191336
MTRMWS
METAR KMWS 191330Z 23500G00KT MM/01 RMK SNOW DEPTH 3.00





000
SAUS46 KLOX 191315
MTRMWS
METAR KMWS 191300Z 23003G04KT 14/M03 RMK SNOW DEPTH 3.00





000
SAUS46 KLOX 191259
MTR9L2
METAR K9L2 191255Z AUTO 00000KT 10SM CLR 08/M02 A2990 RMK AO2 SLP119
T00831017 TSNO $





000
SAUS46 KLOX 191254
MTRMWS
METAR KMWS 191245Z 22504G04KT 15/M01 RMK SNOW DEPTH 3.00





000
SAUS46 KLOX 191254
MTRLAX
METAR KLAX 191253Z 00000KT 10SM FEW014 16/14 A2988 RMK AO2 SLP114
T01610144





000
SAUS46 KLOX 191253
MTRSMX
METAR KSMX 191251Z 00000KT 9SM CLR 13/11 A2987 RMK AO2 SLP117
T01330106 $





000
SAUS46 KLOX 191249
MTRSDB
METAR KSDB 191248Z AUTO 00000KT 10SM CLR 18/00 A3000 RMK AO2 SLP111
T01780000





000
SAUS46 KLOX 191248
MTRCQT
METAR KCQT 191247Z AUTO 00000KT 10SM BKN013 17/13 A2987 RMK AO2
SLP113 T01720133





000
SAUS46 KLOX 191240
MTRCQT
SPECI KCQT 191238Z AUTO 00000KT 10SM BKN013 17/13 A2987 RMK AO2
T01720133





000
SAUS46 KLOX 191236
MTRMWS
METAR KMWS 191230Z 23500G00KT MM/00 RMK SNOW DEPTH 3.00





000
SAUS46 KLOX 191215
MTRMWS
METAR KMWS 191200Z 20504G04KT 15/01 RMK SNOW DEPTH 3.00





000
SAUS46 KLOX 191157
MTR9L2
METAR K9L2 191155Z AUTO 00000KT 10SM CLR 09/M01 A2989 RMK AO2 SLP112
T00891011 10133 20083 55005 TSNO $





000
SAUS46 KLOX 191154
MTRLAX
METAR KLAX 191153Z 00000KT 10SM CLR 16/14 A2986 RMK AO2 SLP110
T01610144 10194 20156 55003





000
SAUS46 KLOX 191154
MTRMWS
METAR KMWS 191145Z 21002G03KT 15/01 RMK SNOW DEPTH 3.00





000
SAUS46 KLOX 191153
MTRSMX
METAR KSMX 191151Z AUTO 00000KT 10SM CLR 13/10 A2987 RMK AO2 SLP116
T01280100 10167 20128 55001





000
SAUS46 KLOX 191149
MTRSDB
METAR KSDB 191148Z AUTO 05003KT 10SM CLR 18/M01 A2999 RMK AO2 SLP105
T01781006 10183 20172 55007





000
SAUS46 KLOX 191148
MTRCQT
METAR KCQT 191147Z AUTO 00000KT 10SM SCT014 17/13 A2986 RMK AO2
SLP109 T01720133 10189 20167 55002





000
SAUS46 KLOX 191136
MTRMWS
METAR KMWS 191130Z 23500G00KT MM/01 RMK SNOW DEPTH 3.00





000
SAUS46 KLOX 191115
MTRMWS
METAR KMWS 191100Z 19502G03KT 13/00 RMK SNOW DEPTH 3.00





000
SAUS46 KLOX 191057
MTR9L2
METAR K9L2 191055Z AUTO 00000KT 10SM CLR 09/M02 A2988 RMK AO2 SLP110
T00891022 TSNO $





000
SAUS46 KLOX 191054
MTRMWS
METAR KMWS 191045Z 20004G05KT 15/00 RMK SNOW DEPTH 3.00





000
SAUS46 KLOX 191054
MTRLAX
METAR KLAX 191053Z 08003KT 10SM CLR 16/14 A2985 RMK AO2 SLP106
T01610144





000
SAUS46 KLOX 191053
MTRSMX
METAR KSMX 191051Z AUTO 12003KT 10SM CLR 13/11 A2986 RMK AO2 SLP113
T01330106





000
SAUS46 KLOX 191049
MTRSDB
METAR KSDB 191048Z AUTO 00000KT 10SM CLR 18/M01 A2999 RMK AO2 SLP103
T01781011





000
SAUS46 KLOX 191049
MTRSDB
METAR KSDB 191048Z AUTO 00000KT 10SM CLR 18/M01 A2999 RMK AO2 SLP103
T01781011





000
SAUS46 KLOX 191048
MTRCQT
METAR KCQT 191047Z AUTO 00000KT 10SM CLR 17/14 A2985 RMK AO2 SLP105
T01720144





000
SAUS46 KLOX 191048
MTRCQT
METAR KCQT 191047Z AUTO 00000KT 10SM CLR 17/14 A2985 RMK AO2 SLP105
T01720144





000
SAUS46 KLOX 191036
MTRMWS
METAR KMWS 191030Z 23500G00KT MM/02 RMK SNOW DEPTH 3.00





000
SAUS46 KLOX 191015
MTRMWS
METAR KMWS 191000Z 17505G07KT 14/02 RMK SNOW DEPTH 3.00





000
SAUS46 KLOX 191000
MTR9L2
METAR K9L2 190955Z AUTO 00000KT 10SM CLR 11/00 A2990 RMK AO2 SLP114
T01060000 TSNO $





000
SAUS46 KLOX 191000
MTR9L2
METAR K9L2 190955Z AUTO 00000KT 10SM CLR 11/00 A2990 RMK AO2 SLP114
T01060000 TSNO $





000
SAUS46 KLOX 190954
MTRMWS
METAR KMWS 190945Z 16006G09KT 15/03 RMK SNOW DEPTH 3.00





000
SAUS46 KLOX 190954
MTRMWS
METAR KMWS 190945Z 16006G09KT 15/03 RMK SNOW DEPTH 3.00





000
SAUS46 KLOX 190954
MTRLAX
METAR KLAX 190953Z 08003KT 10SM CLR 17/15 A2986 RMK AO2 SLP109
T01670150





000
SAUS46 KLOX 190954
MTRLAX
METAR KLAX 190953Z 08003KT 10SM CLR 17/15 A2986 RMK AO2 SLP109
T01670150





000
SAUS46 KLOX 190953
MTRSMX
METAR KSMX 190951Z AUTO 10003KT 10SM CLR 14/11 A2987 RMK AO2 SLP116
T01390106





000
SAUS46 KLOX 190953
MTRSMX
METAR KSMX 190951Z AUTO 10003KT 10SM CLR 14/11 A2987 RMK AO2 SLP116
T01390106





000
SAUS46 KLOX 190952 COR
MTRSDB
METAR KSDB 190948Z AUTO 00000KT 10SM CLR 18/M02 A3000 RMK AO2 SLP106
T01781017





000
SAUS46 KLOX 190952 COR
MTRSDB
METAR KSDB 190948Z AUTO 00000KT 10SM CLR 18/M02 A3000 RMK AO2 SLP106
T01781017





000
SAUS46 KLOX 190948
MTRCQT
METAR KCQT 190947Z AUTO 00000KT 10SM CLR 17/14 A2986 RMK AO2 SLP108
T01720139





000
SAUS46 KLOX 190948
MTRCQT
METAR KCQT 190947Z AUTO 00000KT 10SM CLR 17/14 A2986 RMK AO2 SLP108
T01720139





000
SAUS46 KLOX 190936
MTRMWS
METAR KMWS 190930Z 23500G00KT MM/02 RMK SNOW DEPTH 3.00





000
SAUS46 KLOX 190915
MTRMWS
METAR KMWS 190900Z 07504G05KT 14/00 RMK SNOW DEPTH 3.00





000
SAUS46 KLOX 190858
MTR9L2
METAR K9L2 190855Z AUTO 00000KT 10SM CLR 11/M01 A2990 RMK AO2 SLP118
T01061011 56001 TSNO $





000
SAUS46 KLOX 190855
MTRLAX
METAR KLAX 190853Z 00000KT 10SM CLR 18/15 A2987 RMK AO2 SLP113
T01780150 55003





000
SAUS46 KLOX 190854
MTRMWS
METAR KMWS 190845Z 05503G04KT 14/00 RMK SNOW DEPTH 3.00





000
SAUS46 KLOX 190852
MTRSMX
METAR KSMX 190851Z AUTO 15004KT 10SM CLR 16/12 A2987 RMK AO2 SLP116
T01560122 55003





000
SAUS46 KLOX 190849
MTRSDB
METAR KSDB 190848Z AUTO 04004KT 10SM CLR 18/M01 A3001 RMK AO2 SLP113
T01781011 56001





000
SAUS46 KLOX 190848
MTRCQT
METAR KCQT 190847Z AUTO 00000KT 10SM CLR 18/14 A2986 RMK AO2 SLP110
T01780144 56003





000
SAUS46 KLOX 190836
MTRMWS
METAR KMWS 190830Z 23500G00KT MM/00 RMK SNOW DEPTH 3.00





000
SAUS46 KLOX 190815
MTRMWS
METAR KMWS 190800Z 09505G06KT 14/00 RMK SNOW DEPTH 3.00





000
SAUS46 KLOX 190757
MTR9L2
METAR K9L2 190755Z AUTO 00000KT 10SM CLR 11/M01 A2990 RMK AO2 SLP119
T01111011 402670067 TSNO $





000
SAUS46 KLOX 190754
MTRMWS
METAR KMWS 190745Z 07505G06KT 14/M01 RMK SNOW DEPTH 3.00





000
SAUS46 KLOX 190754
MTRLAX
METAR KLAX 190753Z 00000KT 10SM CLR 19/16 A2987 RMK AO2 SLP112
T01890156 402280156





000
SAUS46 KLOX 190753
MTRSMX
METAR KSMX 190751Z AUTO 17005KT 10SM CLR 15/12 A2987 RMK AO2 SLP115
T01500117 402830117





000
SAUS46 KLOX 190749
MTRSDB
METAR KSDB 190748Z AUTO 09003KT 10SM CLR 18/M02 A3001 RMK AO2 SLP115
T01781022 402330106





000
SAUS46 KLOX 190748
MTRCQT
METAR KCQT 190747Z AUTO 00000KT 10SM CLR 18/14 A2987 RMK AO2 SLP111
T01830144 402560161





000
SAUS46 KLOX 190715
MTRMWS
METAR KMWS 190700Z 03003G04KT 12/M04 RMK SNOW DEPTH 3.00





000
SAUS46 KLOX 190657
MTR9L2
METAR K9L2 190655Z AUTO 00000KT 10SM CLR 13/01 A2990 RMK AO2 SLP119
T01280006 TSNO $





000
SAUS46 KLOX 190654
MTRMWS
METAR KMWS 190645Z  0504G04KT 13/M03 RMK SNOW DEPTH 3.00





000
SAUS46 KLOX 190654
MTRLAX
METAR KLAX 190653Z 00000KT 10SM CLR 19/16 A2987 RMK AO2 SLP112
T01890156





000
SAUS46 KLOX 190653
MTRSMX
METAR KSMX 190651Z AUTO 14003KT 10SM CLR 16/11 A2987 RMK AO2 SLP114
T01560111





000
SAUS46 KLOX 190649
MTRSDB
METAR KSDB 190648Z AUTO 11003KT 10SM CLR 18/M02 A3001 RMK AO2 SLP115
T01781022





000
SAUS46 KLOX 190648
MTRCQT
METAR KCQT 190647Z AUTO 00000KT 10SM CLR 18/15 A2987 RMK AO2 SLP111
T01830150





000
SAUS46 KLOX 190636
MTRMWS
METAR KMWS 190630Z 23500G00KT MM/M03 RMK SNOW DEPTH 3.00





000
SAUS46 KLOX 190615
MTRMWS
METAR KMWS 190600Z 01503G03KT 12/M02 RMK SNOW DEPTH 3.00





000
SAUS46 KLOX 190557
MTR9L2
METAR K9L2 190555Z AUTO 00000KT 10SM CLR 13/M02 A2991 RMK AO2 SLP122
T01331022 10261 20133 51009 TSNO $





000
SAUS46 KLOX 190554
MTRMWS
METAR KMWS 190545Z  0502G03KT 13/M01 RMK SNOW DEPTH 3.00





000
SAUS46 KLOX 190554
MTRLAX
METAR KLAX 190553Z 24003KT 10SM CLR 19/16 A2988 RMK AO2 SLP115
T01940156 10211 20194 50005





000
SAUS46 KLOX 190552
MTRSMX
METAR KSMX 190551Z AUTO 16004KT 10SM CLR 17/12 A2988 RMK AO2 SLP119
T01670117 10233 20161 50005





000
SAUS46 KLOX 190549
MTRSDB
METAR KSDB 190548Z AUTO 09003KT 10SM CLR 18/M02 A3002 RMK AO2 SLP120
T01781017 10211 20156 50005





000
SAUS46 KLOX 190548
MTRCQT
METAR KCQT 190547Z AUTO 00000KT 10SM CLR 19/15 A2987 RMK AO2 SLP114
T01890150 10222 20189 50006





000
SAUS46 KLOX 190536
MTRMWS
METAR KMWS 190530Z 23500G00KT MM/M04 RMK SNOW DEPTH 3.00





000
SAUS46 KLOX 190515
MTRMWS
METAR KMWS 190500Z 21001G01KT 13/M04 RMK SNOW DEPTH 3.00





000
SAUS46 KLOX 190457
MTR9L2
METAR K9L2 190455Z AUTO VRB03KT 10SM CLR 16/03 A2991 RMK AO2 SLP121
T01560028 TSNO $





000
SAUS46 KLOX 190457
MTR9L2
METAR K9L2 190455Z AUTO VRB03KT 10SM CLR 16/03 A2991 RMK AO2 SLP121
T01560028 TSNO $





000
SAUS46 KLOX 190454
MTRMWS
METAR KMWS 190445Z 23001G01KT 13/M03 RMK SNOW DEPTH 3.00





000
SAUS46 KLOX 190454
MTRLAX
METAR KLAX 190453Z 26005KT 10SM CLR 19/16 A2988 RMK AO2 SLP116
T01940161





000
SAUS46 KLOX 190454
MTRLAX
METAR KLAX 190453Z 26005KT 10SM CLR 19/16 A2988 RMK AO2 SLP116
T01940161





000
SAUS46 KLOX 190454
MTRMWS
METAR KMWS 190445Z 23001G01KT 13/M03 RMK SNOW DEPTH 3.00





000
SAUS46 KLOX 190453
MTRSMX
METAR KSMX 190451Z AUTO 27003KT 10SM CLR 18/13 A2989 RMK AO2 SLP120
T01830128





000
SAUS46 KLOX 190453
MTRSMX
METAR KSMX 190451Z AUTO 27003KT 10SM CLR 18/13 A2989 RMK AO2 SLP120
T01830128





000
SAUS46 KLOX 190449
MTRSDB
METAR KSDB 190448Z AUTO 00000KT 10SM CLR 18/M01 A3002 RMK AO2 SLP123
T01831011





000
SAUS46 KLOX 190449
MTRSDB
METAR KSDB 190448Z AUTO 00000KT 10SM CLR 18/M01 A3002 RMK AO2 SLP123
T01831011





000
SAUS46 KLOX 190448
MTRCQT
METAR KCQT 190447Z AUTO 00000KT 10SM CLR 19/15 A2988 RMK AO2 SLP114
T01890150





000
SAUS46 KLOX 190448
MTRCQT
METAR KCQT 190447Z AUTO 00000KT 10SM CLR 19/15 A2988 RMK AO2 SLP114
T01890150





000
SAUS46 KLOX 190436
MTRMWS
METAR KMWS 190430Z 23500G00KT MM/M03 RMK SNOW DEPTH 3.00





000
SAUS46 KLOX 190415
MTRMWS
METAR KMWS 190400Z 28502G02KT 14/M01 RMK SNOW DEPTH 3.00





000
SAUS46 KLOX 190415
MTRMWS
METAR KMWS 190400Z 28502G02KT 14/M01 RMK SNOW DEPTH 3.00





000
SAUS46 KLOX 190357
MTR9L2
METAR K9L2 190355Z AUTO 32005KT 10SM CLR 17/03 A2990 RMK AO2 SLP119
T01720028 TSNO $





000
SAUS46 KLOX 190357
MTR9L2
METAR K9L2 190355Z AUTO 32005KT 10SM CLR 17/03 A2990 RMK AO2 SLP119
T01720028 TSNO $





000
SAUS46 KLOX 190354
MTRMWS
METAR KMWS 190345Z 23003G03KT 14/00 RMK SNOW DEPTH 3.00





000
SAUS46 KLOX 190354
MTRLAX
METAR KLAX 190353Z 27005KT 10SM CLR 19/16 A2988 RMK AO2 SLP115
T01940156





000
SAUS46 KLOX 190354
MTRMWS
METAR KMWS 190345Z 23003G03KT 14/00 RMK SNOW DEPTH 3.00





000
SAUS46 KLOX 190354
MTRLAX
METAR KLAX 190353Z 27005KT 10SM CLR 19/16 A2988 RMK AO2 SLP115
T01940156





000
SAUS46 KLOX 190353
MTRSMX
METAR KSMX 190351Z AUTO 31004KT 10SM CLR 19/13 A2988 RMK AO2 SLP119
T01890128





000
SAUS46 KLOX 190353
MTRSMX
METAR KSMX 190351Z AUTO 31004KT 10SM CLR 19/13 A2988 RMK AO2 SLP119
T01890128





000
SAUS46 KLOX 190349
MTRSDB
METAR KSDB 190348Z AUTO 00000KT 10SM CLR 18/01 A3002 RMK AO2 SLP123
T01780011





000
SAUS46 KLOX 190349
MTRSDB
METAR KSDB 190348Z AUTO 00000KT 10SM CLR 18/01 A3002 RMK AO2 SLP123
T01780011





000
SAUS46 KLOX 190348
MTRCQT
METAR KCQT 190347Z AUTO 00000KT 10SM CLR 19/14 A2987 RMK AO2 SLP113
T01940144





000
SAUS46 KLOX 190348
MTRCQT
METAR KCQT 190347Z AUTO 00000KT 10SM CLR 19/14 A2987 RMK AO2 SLP113
T01940144





000
SAUS46 KLOX 190336
MTRMWS
METAR KMWS 190330Z 23500G00KT MM/00 RMK SNOW DEPTH 3.00





000
SAUS46 KLOX 190336
MTRMWS
METAR KMWS 190330Z 23500G00KT MM/00 RMK SNOW DEPTH 3.00





000
SAUS46 KLOX 190315
MTRMWS
METAR KMWS 190300Z 05002G02KT 13/M01 RMK SNOW DEPTH 3.00





000
SAUS46 KLOX 190257
MTR9L2
METAR K9L2 190255Z AUTO 31003KT 10SM CLR 17/M01 A2988 RMK AO2 SLP117
T01721011 53008 TSNO $





000
SAUS46 KLOX 190254
MTRMWS
METAR KMWS 190245Z 02002G03KT 13/00 RMK SNOW DEPTH 3.00





000
SAUS46 KLOX 190254
MTRLAX
METAR KLAX 190253Z 27006KT 10SM CLR 19/16 A2987 RMK AO2 SLP111
T01940156 53008





000
SAUS46 KLOX 190252
MTRSMX
METAR KSMX 190251Z 29004KT 10SM CLR 19/13 A2987 RMK AO2 SLP115
T01940133 53014





000
SAUS46 KLOX 190249
MTRSDB
METAR KSDB 190248Z AUTO 00000KT 10SM CLR 17/02 A3000 RMK AO2 SLP121
T01720017 53005





000
SAUS46 KLOX 190248
MTRCQT
METAR KCQT 190247Z AUTO 00000KT 10SM CLR 20/15 A2986 RMK AO2 SLP109
T02000150 53009





000
SAUS46 KLOX 190236
MTRMWS
METAR KMWS 190230Z 23500G00KT MM/01 RMK SNOW DEPTH 3.00





000
SAUS46 KLOX 190236
MTRMWS
METAR KMWS 190230Z 23500G00KT MM/01 RMK SNOW DEPTH 3.00





000
SAUS46 KLOX 190215
MTRMWS
METAR KMWS 190200Z 01001G02KT 12/00 RMK SNOW DEPTH 3.00





000
SAUS46 KLOX 190157
MTR9L2
METAR K9L2 190155Z AUTO 24003KT 10SM CLR 22/00 A2987 RMK AO2 SLP108
T02220000 $





000
SAUS46 KLOX 190155
MTRLAX
METAR KLAX 190153Z 26008KT 10SM CLR 19/16 A2985 RMK AO2 SLP108
T01940156





000
SAUS46 KLOX 190154
MTRMWS
METAR KMWS 190145Z 02501G02KT 13/00 RMK SNOW DEPTH 3.00





000
SAUS46 KLOX 190152
MTRSMX
METAR KSMX 190151Z 29012KT 10SM CLR 20/14 A2985 RMK AO2 SLP107
T02000139





000
SAUS46 KLOX 190149
MTRSDB
METAR KSDB 190148Z AUTO 34004KT 10SM CLR 16/03 A2999 RMK AO2 SLP120
T01610028





000
SAUS46 KLOX 190149
MTRCQT
METAR KCQT 190147Z AUTO VRB03KT 10SM CLR 21/14 A2984 RMK AO2 SLP104
T02060144





000
SAUS46 KLOX 190136
MTRMWS
METAR KMWS 190130Z 23500G00KT MM/00 RMK SNOW DEPTH 3.00





000
SAUS46 KLOX 190115
MTRMWS
METAR KMWS 190100Z 34502G03KT 17/05 RMK SNOW DEPTH 3.00





000
SAUS46 KLOX 190057
MTR9L2
METAR K9L2 190055Z AUTO 00000KT 10SM CLR 25/01 A2985 RMK AO2 SLP100
T02500006 $





000
SAUS46 KLOX 190054
MTRMWS
METAR KMWS 190045Z 35002G04KT 17/04 RMK SNOW DEPTH 3.00





000
SAUS46 KLOX 190054
MTRLAX
METAR KLAX 190053Z 26009KT 10SM FEW020 20/15 A2984 RMK AO2 SLP104
T02000150





000
SAUS46 KLOX 190052
MTRSMX
METAR KSMX 190051Z 30017KT 9SM CLR 22/15 A2983 RMK AO2 SLP102
T02170150





000
SAUS46 KLOX 190049
MTRSDB
METAR KSDB 190048Z AUTO 01003KT 10SM CLR 18/03 A2999 RMK AO2 SLP116
T01830033





000
SAUS46 KLOX 190048
MTRCQT
METAR KCQT 190047Z AUTO 27006KT 10SM CLR 22/13 A2983 RMK AO2 SLP100
T02170128





000
SAUS46 KLOX 190036
MTRMWS
METAR KMWS 190030Z 23500G00KT MM/06 RMK SNOW DEPTH 3.00





000
SAUS46 KLOX 190015
MTRMWS
METAR KMWS 190000Z 01503G03KT 18/05 RMK SNOW DEPTH 3.00





000
SAUS46 KLOX 182357
MTR9L2
METAR K9L2 182355Z AUTO 22003KT 10SM CLR 26/01 A2985 RMK AO2 SLP099
T02610011 10267 20167 56013 TSNO $





000
SAUS46 KLOX 182355
MTRLAX
METAR KLAX 182353Z 26008KT 10SM FEW020 21/14 A2984 RMK AO2 SLP103
T02110144 10228 20206 56012





000
SAUS46 KLOX 182354
MTRMWS
METAR KMWS 182345Z 35002G03KT 18/07 RMK SNOW DEPTH 3.00





000
SAUS46 KLOX 182352
MTRSMX
METAR KSMX 182351Z 30022KT 9SM CLR 23/15 A2983 RMK AO2 PK WND
30027/2254 SLP101 60000 T02330150 10283 20233 56015





000
SAUS46 KLOX 182349
MTRSDB
METAR KSDB 182348Z AUTO 02005KT 10SM CLR 21/04 A2999 RMK AO2 SLP113
T02060039 10233 20161 56007





000
SAUS46 KLOX 182349
MTRCQT
METAR KCQT 182347Z AUTO 26004KT 10SM CLR 22/13 A2983 RMK AO2 SLP100
T02220133 10256 20222 57008





000
SAUS46 KLOX 182336
MTRMWS
METAR KMWS 182330Z 23500G00KT MM/07 RMK SNOW DEPTH 3.00





000
SAUS46 KLOX 182315
MTRMWS
METAR KMWS 182300Z 28002G05KT 20/09 RMK SNOW DEPTH 3.00





000
SAUS46 KLOX 182257
MTR9L2
METAR K9L2 182255Z AUTO 00000KT 10SM CLR 26/02 A2987 RMK AO2 SLP102
T02610017 $





000
SAUS46 KLOX 182254
MTRLAX
METAR KLAX 182253Z 26010KT 10SM CLR 22/15 A2985 RMK AO2 SLP107
T02170150





000
SAUS46 KLOX 182254
MTRMWS
METAR KMWS 182245Z 23503G06KT 21/10 RMK SNOW DEPTH 3.00





000
SAUS46 KLOX 182252
MTRSMX
METAR KSMX 182251Z 30021KT 10SM CLR 24/14 A2984 RMK AO2 PK WND
29026/2251 SLP105 T02440144





000
SAUS46 KLOX 182249
MTRSDB
METAR KSDB 182248Z AUTO 03008KT 330V050 10SM CLR 22/02 A2999 RMK AO2
SLP112 T02220017





000
SAUS46 KLOX 182249
MTRCQT
METAR KCQT 182247Z AUTO 00000KT 10SM CLR 23/13 A2984 RMK AO2 SLP101
T02330133





000
SAUS46 KLOX 182236
MTRMWS
METAR KMWS 182230Z 23500G00KT MM/09 RMK SNOW DEPTH 4.00





000
SAUS46 KLOX 182215
MTRMWS
METAR KMWS 182200Z 25003G03KT 20/09 RMK SNOW DEPTH 3.00





000
SAUS46 KLOX 182157
MTR9L2
METAR K9L2 182155Z AUTO 00000KT 10SM CLR 25/02 A2988 RMK AO2 SLP106
T02500022 $





000
SAUS46 KLOX 182154
MTRLAX
METAR KLAX 182153Z 27011KT 10SM FEW036 22/13 A2986 RMK AO2 SLP110
T02220133





000
SAUS46 KLOX 182154
MTRMWS
METAR KMWS 182145Z 20503G04KT 20/10 RMK SNOW DEPTH 4.00





000
SAUS46 KLOX 182154
MTRLAX
METAR KLAX 182153Z 27011KT 10SM FEW036 22/13 A2986 RMK AO2 SLP110
T02220133





000
SAUS46 KLOX 182154
MTRMWS
METAR KMWS 182145Z 20503G04KT 20/10 RMK SNOW DEPTH 4.00





000
SAUS46 KLOX 182153
MTRSMX
METAR KSMX 182151Z 30021KT 10SM CLR 25/13 A2985 RMK AO2 SLP108
T02500133





000
SAUS46 KLOX 182153
MTRSMX
METAR KSMX 182151Z 30021KT 10SM CLR 25/13 A2985 RMK AO2 SLP108
T02500133





000
SAUS46 KLOX 182149
MTRSDB
METAR KSDB 182148Z AUTO 04006KT 10SM CLR 23/02 A3000 RMK AO2 SLP113
T02280022





000
SAUS46 KLOX 182148
MTRCQT
METAR KCQT 182147Z AUTO VRB03KT 10SM CLR 24/13 A2985 RMK AO2 SLP104
T02440133





    US Dept of Commerce
    National Oceanic and Atmospheric Administration
    National Weather Service
    1325 East West Highway
    Silver Spring, MD 20910
    Page Author: NWS Internet Services Team
Disclaimer
Information Quality
Credits
Glossary
Privacy Policy
Freedom of Information Act (FOIA)
About Us
Career Opportunities